<?xml version="1.0" encoding="UTF-8" standalone="no" ?>
<gpx xmlns="http://www.topografix.com/GPX/1/1" xmlns:xsi="http://www.w3.org/2001/XMLSchema-instance" xsi:schemaLocation="http://www.topografix.com/GPX/1/1 http://www.topografix.com/GPX/1/1/gpx.xsd" version="1.1" creator="VisuGPX - https://www.visugpx.com">
  <metadata>
    <name>3 calanques, Port Miou, Port Pin et En Vau</name>
    <desc><![CDATA[Randonnée au du club APRA]]></desc>
  </metadata>
  <trk>
    <name><![CDATA[Tracé actuel: 11 AVR 2013 09:30]]></name>
    <trkseg>
      <trkpt lat="43.22718" lon="5.50375">
        <ele>262.1</ele>
        <time>2013-04-11T07:30:19Z</time>
      </trkpt>
      <trkpt lat="43.22716" lon="5.50374">
        <ele>260.17</ele>
        <time>2013-04-11T07:30:41Z</time>
      </trkpt>
      <trkpt lat="43.22716" lon="5.5037">
        <ele>260.65</ele>
        <time>2013-04-11T07:31:01Z</time>
      </trkpt>
      <trkpt lat="43.22714" lon="5.50369">
        <ele>260.65</ele>
        <time>2013-04-11T07:31:05Z</time>
      </trkpt>
      <trkpt lat="43.22713" lon="5.50371">
        <ele>259.69</ele>
        <time>2013-04-11T07:31:10Z</time>
      </trkpt>
      <trkpt lat="43.22721" lon="5.50364">
        <ele>257.77</ele>
        <time>2013-04-11T07:31:24Z</time>
      </trkpt>
      <trkpt lat="43.22721" lon="5.50361">
        <ele>257.29</ele>
        <time>2013-04-11T07:31:40Z</time>
      </trkpt>
      <trkpt lat="43.22722" lon="5.50359">
        <ele>255.85</ele>
        <time>2013-04-11T07:31:53Z</time>
      </trkpt>
      <trkpt lat="43.22722" lon="5.50362">
        <ele>257.29</ele>
        <time>2013-04-11T07:32:11Z</time>
      </trkpt>
      <trkpt lat="43.22722" lon="5.50363">
        <ele>254.89</ele>
        <time>2013-04-11T07:32:28Z</time>
      </trkpt>
      <trkpt lat="43.22721" lon="5.5036">
        <ele>256.33</ele>
        <time>2013-04-11T07:32:46Z</time>
      </trkpt>
      <trkpt lat="43.22722" lon="5.50358">
        <ele>258.25</ele>
        <time>2013-04-11T07:33:10Z</time>
      </trkpt>
      <trkpt lat="43.22723" lon="5.50358">
        <ele>258.73</ele>
        <time>2013-04-11T07:33:30Z</time>
      </trkpt>
      <trkpt lat="43.22721" lon="5.50357">
        <ele>260.65</ele>
        <time>2013-04-11T07:33:48Z</time>
      </trkpt>
      <trkpt lat="43.2272" lon="5.50357">
        <ele>261.62</ele>
        <time>2013-04-11T07:34:13Z</time>
      </trkpt>
      <trkpt lat="43.22721" lon="5.50358">
        <ele>262.1</ele>
        <time>2013-04-11T07:34:27Z</time>
      </trkpt>
      <trkpt lat="43.22721" lon="5.5036">
        <ele>261.14</ele>
        <time>2013-04-11T07:34:55Z</time>
      </trkpt>
      <trkpt lat="43.22724" lon="5.50359">
        <ele>260.65</ele>
        <time>2013-04-11T07:35:18Z</time>
      </trkpt>
      <trkpt lat="43.22723" lon="5.50363">
        <ele>258.73</ele>
        <time>2013-04-11T07:35:47Z</time>
      </trkpt>
      <trkpt lat="43.22724" lon="5.50365">
        <ele>260.17</ele>
        <time>2013-04-11T07:36:06Z</time>
      </trkpt>
      <trkpt lat="43.22723" lon="5.50366">
        <ele>260.17</ele>
        <time>2013-04-11T07:36:32Z</time>
      </trkpt>
      <trkpt lat="43.22725" lon="5.50366">
        <ele>261.14</ele>
        <time>2013-04-11T07:37:05Z</time>
      </trkpt>
      <trkpt lat="43.22724" lon="5.50374">
        <ele>260.65</ele>
        <time>2013-04-11T07:37:20Z</time>
      </trkpt>
      <trkpt lat="43.22722" lon="5.50386">
        <ele>259.69</ele>
        <time>2013-04-11T07:37:36Z</time>
      </trkpt>
      <trkpt lat="43.22715" lon="5.50399">
        <ele>259.21</ele>
        <time>2013-04-11T07:37:51Z</time>
      </trkpt>
      <trkpt lat="43.22707" lon="5.50415">
        <ele>257.29</ele>
        <time>2013-04-11T07:38:10Z</time>
      </trkpt>
      <trkpt lat="43.22701" lon="5.50433">
        <ele>255.85</ele>
        <time>2013-04-11T07:38:31Z</time>
      </trkpt>
      <trkpt lat="43.22694" lon="5.50436">
        <ele>255.37</ele>
        <time>2013-04-11T07:38:38Z</time>
      </trkpt>
      <trkpt lat="43.22671" lon="5.50442">
        <ele>254.89</ele>
        <time>2013-04-11T07:38:59Z</time>
      </trkpt>
      <trkpt lat="43.22649" lon="5.50445">
        <ele>255.85</ele>
        <time>2013-04-11T07:39:19Z</time>
      </trkpt>
      <trkpt lat="43.22623" lon="5.5045">
        <ele>254.89</ele>
        <time>2013-04-11T07:39:41Z</time>
      </trkpt>
      <trkpt lat="43.22598" lon="5.50455">
        <ele>254.89</ele>
        <time>2013-04-11T07:40:03Z</time>
      </trkpt>
      <trkpt lat="43.22574" lon="5.50459">
        <ele>253.93</ele>
        <time>2013-04-11T07:40:27Z</time>
      </trkpt>
      <trkpt lat="43.22549" lon="5.50465">
        <ele>252</ele>
        <time>2013-04-11T07:40:50Z</time>
      </trkpt>
      <trkpt lat="43.22533" lon="5.50474">
        <ele>250.08</ele>
        <time>2013-04-11T07:41:07Z</time>
      </trkpt>
      <trkpt lat="43.22504" lon="5.50492">
        <ele>246.72</ele>
        <time>2013-04-11T07:41:33Z</time>
      </trkpt>
      <trkpt lat="43.22479" lon="5.50511">
        <ele>243.83</ele>
        <time>2013-04-11T07:41:57Z</time>
      </trkpt>
      <trkpt lat="43.22452" lon="5.50535">
        <ele>241.43</ele>
        <time>2013-04-11T07:42:23Z</time>
      </trkpt>
      <trkpt lat="43.2244" lon="5.50551">
        <ele>241.43</ele>
        <time>2013-04-11T07:42:42Z</time>
      </trkpt>
      <trkpt lat="43.22436" lon="5.50561">
        <ele>241.91</ele>
        <time>2013-04-11T07:42:49Z</time>
      </trkpt>
      <trkpt lat="43.2243" lon="5.50596">
        <ele>241.43</ele>
        <time>2013-04-11T07:43:12Z</time>
      </trkpt>
      <trkpt lat="43.2244" lon="5.50641">
        <ele>241.43</ele>
        <time>2013-04-11T07:43:41Z</time>
      </trkpt>
      <trkpt lat="43.22451" lon="5.5068">
        <ele>239.99</ele>
        <time>2013-04-11T07:44:07Z</time>
      </trkpt>
      <trkpt lat="43.22458" lon="5.5071">
        <ele>237.58</ele>
        <time>2013-04-11T07:44:30Z</time>
      </trkpt>
      <trkpt lat="43.22458" lon="5.50716">
        <ele>239.51</ele>
        <time>2013-04-11T07:44:48Z</time>
      </trkpt>
      <trkpt lat="43.22459" lon="5.50716">
        <ele>239.02</ele>
        <time>2013-04-11T07:45:12Z</time>
      </trkpt>
      <trkpt lat="43.22459" lon="5.50714">
        <ele>239.99</ele>
        <time>2013-04-11T07:45:43Z</time>
      </trkpt>
      <trkpt lat="43.22457" lon="5.50715">
        <ele>238.54</ele>
        <time>2013-04-11T07:46:05Z</time>
      </trkpt>
      <trkpt lat="43.22455" lon="5.50737">
        <ele>236.62</ele>
        <time>2013-04-11T07:46:21Z</time>
      </trkpt>
      <trkpt lat="43.22448" lon="5.50753">
        <ele>235.66</ele>
        <time>2013-04-11T07:46:36Z</time>
      </trkpt>
      <trkpt lat="43.2242" lon="5.50773">
        <ele>233.74</ele>
        <time>2013-04-11T07:47:04Z</time>
      </trkpt>
      <trkpt lat="43.22404" lon="5.50806">
        <ele>232.78</ele>
        <time>2013-04-11T07:47:30Z</time>
      </trkpt>
      <trkpt lat="43.22399" lon="5.50821">
        <ele>231.33</ele>
        <time>2013-04-11T07:47:50Z</time>
      </trkpt>
      <trkpt lat="43.22386" lon="5.50836">
        <ele>229.89</ele>
        <time>2013-04-11T07:48:14Z</time>
      </trkpt>
      <trkpt lat="43.22373" lon="5.50858">
        <ele>227.01</ele>
        <time>2013-04-11T07:48:37Z</time>
      </trkpt>
      <trkpt lat="43.22361" lon="5.50874">
        <ele>224.12</ele>
        <time>2013-04-11T07:49:00Z</time>
      </trkpt>
      <trkpt lat="43.2234" lon="5.50891">
        <ele>223.16</ele>
        <time>2013-04-11T07:49:27Z</time>
      </trkpt>
      <trkpt lat="43.2232" lon="5.50903">
        <ele>220.28</ele>
        <time>2013-04-11T07:49:50Z</time>
      </trkpt>
      <trkpt lat="43.223" lon="5.50918">
        <ele>215.95</ele>
        <time>2013-04-11T07:50:14Z</time>
      </trkpt>
      <trkpt lat="43.22278" lon="5.50931">
        <ele>214.51</ele>
        <time>2013-04-11T07:50:37Z</time>
      </trkpt>
      <trkpt lat="43.22254" lon="5.50944">
        <ele>212.59</ele>
        <time>2013-04-11T07:51:05Z</time>
      </trkpt>
      <trkpt lat="43.22236" lon="5.50961">
        <ele>211.63</ele>
        <time>2013-04-11T07:51:27Z</time>
      </trkpt>
      <trkpt lat="43.22221" lon="5.50974">
        <ele>209.7</ele>
        <time>2013-04-11T07:51:48Z</time>
      </trkpt>
      <trkpt lat="43.222" lon="5.50993">
        <ele>205.86</ele>
        <time>2013-04-11T07:52:14Z</time>
      </trkpt>
      <trkpt lat="43.22182" lon="5.51007">
        <ele>205.38</ele>
        <time>2013-04-11T07:52:39Z</time>
      </trkpt>
      <trkpt lat="43.22162" lon="5.5102">
        <ele>203.94</ele>
        <time>2013-04-11T07:53:04Z</time>
      </trkpt>
      <trkpt lat="43.22143" lon="5.51036">
        <ele>201.05</ele>
        <time>2013-04-11T07:53:29Z</time>
      </trkpt>
      <trkpt lat="43.22122" lon="5.51057">
        <ele>199.61</ele>
        <time>2013-04-11T07:53:54Z</time>
      </trkpt>
      <trkpt lat="43.22104" lon="5.51072">
        <ele>196.73</ele>
        <time>2013-04-11T07:54:18Z</time>
      </trkpt>
      <trkpt lat="43.22084" lon="5.51091">
        <ele>196.25</ele>
        <time>2013-04-11T07:54:45Z</time>
      </trkpt>
      <trkpt lat="43.22069" lon="5.51114">
        <ele>198.65</ele>
        <time>2013-04-11T07:55:11Z</time>
      </trkpt>
      <trkpt lat="43.22051" lon="5.51128">
        <ele>201.53</ele>
        <time>2013-04-11T07:55:34Z</time>
      </trkpt>
      <trkpt lat="43.22036" lon="5.51146">
        <ele>204.42</ele>
        <time>2013-04-11T07:55:55Z</time>
      </trkpt>
      <trkpt lat="43.22022" lon="5.5117">
        <ele>207.3</ele>
        <time>2013-04-11T07:56:15Z</time>
      </trkpt>
      <trkpt lat="43.22008" lon="5.5119">
        <ele>208.74</ele>
        <time>2013-04-11T07:56:37Z</time>
      </trkpt>
      <trkpt lat="43.21994" lon="5.51214">
        <ele>208.26</ele>
        <time>2013-04-11T07:56:59Z</time>
      </trkpt>
      <trkpt lat="43.21982" lon="5.51235">
        <ele>206.34</ele>
        <time>2013-04-11T07:57:20Z</time>
      </trkpt>
      <trkpt lat="43.21966" lon="5.51263">
        <ele>202.98</ele>
        <time>2013-04-11T07:57:45Z</time>
      </trkpt>
      <trkpt lat="43.21952" lon="5.51285">
        <ele>201.53</ele>
        <time>2013-04-11T07:58:06Z</time>
      </trkpt>
      <trkpt lat="43.21935" lon="5.51312">
        <ele>201.05</ele>
        <time>2013-04-11T07:58:31Z</time>
      </trkpt>
      <trkpt lat="43.21918" lon="5.51338">
        <ele>200.09</ele>
        <time>2013-04-11T07:58:55Z</time>
      </trkpt>
      <trkpt lat="43.21901" lon="5.51368">
        <ele>198.65</ele>
        <time>2013-04-11T07:59:23Z</time>
      </trkpt>
      <trkpt lat="43.21885" lon="5.51393">
        <ele>197.69</ele>
        <time>2013-04-11T07:59:47Z</time>
      </trkpt>
      <trkpt lat="43.21868" lon="5.51421">
        <ele>194.32</ele>
        <time>2013-04-11T08:00:13Z</time>
      </trkpt>
      <trkpt lat="43.21851" lon="5.51448">
        <ele>191.92</ele>
        <time>2013-04-11T08:00:39Z</time>
      </trkpt>
      <trkpt lat="43.21838" lon="5.51472">
        <ele>189.52</ele>
        <time>2013-04-11T08:01:04Z</time>
      </trkpt>
      <trkpt lat="43.21821" lon="5.51497">
        <ele>188.56</ele>
        <time>2013-04-11T08:01:30Z</time>
      </trkpt>
      <trkpt lat="43.21809" lon="5.51519">
        <ele>186.63</ele>
        <time>2013-04-11T08:01:54Z</time>
      </trkpt>
      <trkpt lat="43.21799" lon="5.51532">
        <ele>184.71</ele>
        <time>2013-04-11T08:02:11Z</time>
      </trkpt>
      <trkpt lat="43.21788" lon="5.51558">
        <ele>182.79</ele>
        <time>2013-04-11T08:02:34Z</time>
      </trkpt>
      <trkpt lat="43.21774" lon="5.51578">
        <ele>177.98</ele>
        <time>2013-04-11T08:02:57Z</time>
      </trkpt>
      <trkpt lat="43.21759" lon="5.516">
        <ele>175.1</ele>
        <time>2013-04-11T08:03:21Z</time>
      </trkpt>
      <trkpt lat="43.21749" lon="5.51619">
        <ele>174.14</ele>
        <time>2013-04-11T08:03:40Z</time>
      </trkpt>
      <trkpt lat="43.21735" lon="5.5164">
        <ele>169.33</ele>
        <time>2013-04-11T08:04:03Z</time>
      </trkpt>
      <trkpt lat="43.21721" lon="5.51665">
        <ele>166.45</ele>
        <time>2013-04-11T08:04:29Z</time>
      </trkpt>
      <trkpt lat="43.21712" lon="5.51681">
        <ele>163.56</ele>
        <time>2013-04-11T08:04:52Z</time>
      </trkpt>
      <trkpt lat="43.21707" lon="5.51698">
        <ele>163.08</ele>
        <time>2013-04-11T08:05:13Z</time>
      </trkpt>
      <trkpt lat="43.21703" lon="5.5172">
        <ele>158.75</ele>
        <time>2013-04-11T08:05:35Z</time>
      </trkpt>
      <trkpt lat="43.21697" lon="5.51743">
        <ele>155.87</ele>
        <time>2013-04-11T08:05:56Z</time>
      </trkpt>
      <trkpt lat="43.21688" lon="5.51762">
        <ele>153.47</ele>
        <time>2013-04-11T08:06:17Z</time>
      </trkpt>
      <trkpt lat="43.21676" lon="5.5178">
        <ele>151.06</ele>
        <time>2013-04-11T08:06:40Z</time>
      </trkpt>
      <trkpt lat="43.21671" lon="5.51796">
        <ele>148.18</ele>
        <time>2013-04-11T08:06:59Z</time>
      </trkpt>
      <trkpt lat="43.21656" lon="5.5181">
        <ele>147.22</ele>
        <time>2013-04-11T08:07:20Z</time>
      </trkpt>
      <trkpt lat="43.21648" lon="5.51827">
        <ele>145.3</ele>
        <time>2013-04-11T08:07:40Z</time>
      </trkpt>
      <trkpt lat="43.2164" lon="5.51843">
        <ele>144.82</ele>
        <time>2013-04-11T08:07:59Z</time>
      </trkpt>
      <trkpt lat="43.2163" lon="5.51862">
        <ele>142.89</ele>
        <time>2013-04-11T08:08:22Z</time>
      </trkpt>
      <trkpt lat="43.2162" lon="5.51884">
        <ele>140.49</ele>
        <time>2013-04-11T08:08:43Z</time>
      </trkpt>
      <trkpt lat="43.21611" lon="5.51904">
        <ele>136.16</ele>
        <time>2013-04-11T08:09:05Z</time>
      </trkpt>
      <trkpt lat="43.21596" lon="5.5192">
        <ele>134.72</ele>
        <time>2013-04-11T08:09:25Z</time>
      </trkpt>
      <trkpt lat="43.2159" lon="5.51942">
        <ele>132.8</ele>
        <time>2013-04-11T08:09:47Z</time>
      </trkpt>
      <trkpt lat="43.21579" lon="5.5196">
        <ele>128.95</ele>
        <time>2013-04-11T08:10:08Z</time>
      </trkpt>
      <trkpt lat="43.21571" lon="5.51979">
        <ele>125.11</ele>
        <time>2013-04-11T08:10:27Z</time>
      </trkpt>
      <trkpt lat="43.2156" lon="5.52011">
        <ele>123.67</ele>
        <time>2013-04-11T08:10:54Z</time>
      </trkpt>
      <trkpt lat="43.21551" lon="5.52034">
        <ele>121.26</ele>
        <time>2013-04-11T08:11:14Z</time>
      </trkpt>
      <trkpt lat="43.21551" lon="5.52052">
        <ele>119.82</ele>
        <time>2013-04-11T08:11:33Z</time>
      </trkpt>
      <trkpt lat="43.21566" lon="5.5205">
        <ele>118.86</ele>
        <time>2013-04-11T08:11:53Z</time>
      </trkpt>
      <trkpt lat="43.21576" lon="5.52043">
        <ele>117.9</ele>
        <time>2013-04-11T08:12:13Z</time>
      </trkpt>
      <trkpt lat="43.2159" lon="5.52038">
        <ele>116.46</ele>
        <time>2013-04-11T08:12:38Z</time>
      </trkpt>
      <trkpt lat="43.21602" lon="5.52038">
        <ele>115.01</ele>
        <time>2013-04-11T08:12:59Z</time>
      </trkpt>
      <trkpt lat="43.21615" lon="5.5204">
        <ele>112.61</ele>
        <time>2013-04-11T08:13:21Z</time>
      </trkpt>
      <trkpt lat="43.21628" lon="5.52047">
        <ele>107.81</ele>
        <time>2013-04-11T08:13:41Z</time>
      </trkpt>
      <trkpt lat="43.21641" lon="5.52051">
        <ele>105.4</ele>
        <time>2013-04-11T08:14:03Z</time>
      </trkpt>
      <trkpt lat="43.21649" lon="5.52055">
        <ele>102.04</ele>
        <time>2013-04-11T08:14:23Z</time>
      </trkpt>
      <trkpt lat="43.21653" lon="5.52058">
        <ele>98.67</ele>
        <time>2013-04-11T08:14:41Z</time>
      </trkpt>
      <trkpt lat="43.21662" lon="5.52064">
        <ele>97.23</ele>
        <time>2013-04-11T08:14:58Z</time>
      </trkpt>
      <trkpt lat="43.21672" lon="5.52066">
        <ele>97.71</ele>
        <time>2013-04-11T08:15:15Z</time>
      </trkpt>
      <trkpt lat="43.2167" lon="5.52067">
        <ele>95.31</ele>
        <time>2013-04-11T08:15:30Z</time>
      </trkpt>
      <trkpt lat="43.21672" lon="5.52074">
        <ele>91.94</ele>
        <time>2013-04-11T08:15:47Z</time>
      </trkpt>
      <trkpt lat="43.2166" lon="5.52084">
        <ele>90.98</ele>
        <time>2013-04-11T08:16:07Z</time>
      </trkpt>
      <trkpt lat="43.21649" lon="5.52093">
        <ele>90.5</ele>
        <time>2013-04-11T08:16:28Z</time>
      </trkpt>
      <trkpt lat="43.21642" lon="5.52098">
        <ele>89.54</ele>
        <time>2013-04-11T08:16:48Z</time>
      </trkpt>
      <trkpt lat="43.21634" lon="5.52101">
        <ele>87.62</ele>
        <time>2013-04-11T08:17:08Z</time>
      </trkpt>
      <trkpt lat="43.21626" lon="5.52107">
        <ele>85.69</ele>
        <time>2013-04-11T08:17:28Z</time>
      </trkpt>
      <trkpt lat="43.2162" lon="5.52116">
        <ele>82.81</ele>
        <time>2013-04-11T08:17:49Z</time>
      </trkpt>
      <trkpt lat="43.21616" lon="5.52128">
        <ele>77.52</ele>
        <time>2013-04-11T08:18:09Z</time>
      </trkpt>
      <trkpt lat="43.21618" lon="5.5214">
        <ele>75.12</ele>
        <time>2013-04-11T08:18:29Z</time>
      </trkpt>
      <trkpt lat="43.21621" lon="5.52155">
        <ele>73.68</ele>
        <time>2013-04-11T08:18:50Z</time>
      </trkpt>
      <trkpt lat="43.21622" lon="5.52173">
        <ele>71.27</ele>
        <time>2013-04-11T08:19:11Z</time>
      </trkpt>
      <trkpt lat="43.21619" lon="5.52185">
        <ele>69.83</ele>
        <time>2013-04-11T08:19:32Z</time>
      </trkpt>
      <trkpt lat="43.21613" lon="5.52207">
        <ele>64.55</ele>
        <time>2013-04-11T08:19:59Z</time>
      </trkpt>
      <trkpt lat="43.2161" lon="5.52219">
        <ele>61.18</ele>
        <time>2013-04-11T08:20:21Z</time>
      </trkpt>
      <trkpt lat="43.21607" lon="5.52229">
        <ele>57.82</ele>
        <time>2013-04-11T08:20:41Z</time>
      </trkpt>
      <trkpt lat="43.21605" lon="5.52241">
        <ele>54.45</ele>
        <time>2013-04-11T08:21:01Z</time>
      </trkpt>
      <trkpt lat="43.21602" lon="5.52244">
        <ele>51.57</ele>
        <time>2013-04-11T08:21:19Z</time>
      </trkpt>
      <trkpt lat="43.21598" lon="5.52251">
        <ele>49.16</ele>
        <time>2013-04-11T08:21:38Z</time>
      </trkpt>
      <trkpt lat="43.2159" lon="5.52253">
        <ele>44.36</ele>
        <time>2013-04-11T08:22:00Z</time>
      </trkpt>
      <trkpt lat="43.21584" lon="5.52267">
        <ele>42.44</ele>
        <time>2013-04-11T08:22:18Z</time>
      </trkpt>
      <trkpt lat="43.21581" lon="5.52278">
        <ele>43.88</ele>
        <time>2013-04-11T08:22:38Z</time>
      </trkpt>
      <trkpt lat="43.21569" lon="5.52294">
        <ele>43.88</ele>
        <time>2013-04-11T08:22:59Z</time>
      </trkpt>
      <trkpt lat="43.21563" lon="5.52305">
        <ele>40.99</ele>
        <time>2013-04-11T08:23:19Z</time>
      </trkpt>
      <trkpt lat="43.21559" lon="5.5231">
        <ele>38.59</ele>
        <time>2013-04-11T08:23:36Z</time>
      </trkpt>
      <trkpt lat="43.21553" lon="5.52321">
        <ele>35.71</ele>
        <time>2013-04-11T08:23:56Z</time>
      </trkpt>
      <trkpt lat="43.21548" lon="5.52333">
        <ele>33.3</ele>
        <time>2013-04-11T08:24:16Z</time>
      </trkpt>
      <trkpt lat="43.2154" lon="5.52347">
        <ele>29.94</ele>
        <time>2013-04-11T08:24:36Z</time>
      </trkpt>
      <trkpt lat="43.21529" lon="5.5236">
        <ele>28.5</ele>
        <time>2013-04-11T08:24:57Z</time>
      </trkpt>
      <trkpt lat="43.21552" lon="5.52359">
        <ele>40.99</ele>
        <time>2013-04-11T08:25:20Z</time>
      </trkpt>
      <trkpt lat="43.21554" lon="5.52355">
        <ele>42.92</ele>
        <time>2013-04-11T08:25:44Z</time>
      </trkpt>
      <trkpt lat="43.2156" lon="5.52355">
        <ele>55.89</ele>
        <time>2013-04-11T08:26:11Z</time>
      </trkpt>
      <trkpt lat="43.21552" lon="5.52348">
        <ele>47.72</ele>
        <time>2013-04-11T08:26:36Z</time>
      </trkpt>
      <trkpt lat="43.21535" lon="5.52366">
        <ele>42.92</ele>
        <time>2013-04-11T08:27:02Z</time>
      </trkpt>
      <trkpt lat="43.21537" lon="5.52372">
        <ele>42.92</ele>
        <time>2013-04-11T08:27:27Z</time>
      </trkpt>
      <trkpt lat="43.21533" lon="5.52363">
        <ele>43.88</ele>
        <time>2013-04-11T08:27:49Z</time>
      </trkpt>
      <trkpt lat="43.21543" lon="5.52358">
        <ele>49.16</ele>
        <time>2013-04-11T08:28:12Z</time>
      </trkpt>
      <trkpt lat="43.21555" lon="5.52364">
        <ele>49.16</ele>
        <time>2013-04-11T08:28:35Z</time>
      </trkpt>
      <trkpt lat="43.21554" lon="5.52367">
        <ele>51.57</ele>
        <time>2013-04-11T08:29:00Z</time>
      </trkpt>
      <trkpt lat="43.21552" lon="5.52367">
        <ele>51.57</ele>
        <time>2013-04-11T08:29:02Z</time>
      </trkpt>
      <trkpt lat="43.21543" lon="5.52372">
        <ele>50.61</ele>
        <time>2013-04-11T08:29:21Z</time>
      </trkpt>
      <trkpt lat="43.21557" lon="5.52364">
        <ele>47.72</ele>
        <time>2013-04-11T08:29:45Z</time>
      </trkpt>
      <trkpt lat="43.21566" lon="5.52359">
        <ele>50.13</ele>
        <time>2013-04-11T08:30:07Z</time>
      </trkpt>
      <trkpt lat="43.21567" lon="5.52358">
        <ele>51.57</ele>
        <time>2013-04-11T08:30:26Z</time>
      </trkpt>
      <trkpt lat="43.21559" lon="5.5236">
        <ele>51.09</ele>
        <time>2013-04-11T08:30:49Z</time>
      </trkpt>
      <trkpt lat="43.21552" lon="5.52355">
        <ele>52.05</ele>
        <time>2013-04-11T08:31:07Z</time>
      </trkpt>
      <trkpt lat="43.21532" lon="5.52347">
        <ele>51.09</ele>
        <time>2013-04-11T08:31:27Z</time>
      </trkpt>
      <trkpt lat="43.21509" lon="5.52322">
        <ele>45.8</ele>
        <time>2013-04-11T08:31:50Z</time>
      </trkpt>
      <trkpt lat="43.21491" lon="5.52317">
        <ele>43.88</ele>
        <time>2013-04-11T08:32:10Z</time>
      </trkpt>
      <trkpt lat="43.21473" lon="5.52319">
        <ele>41.95</ele>
        <time>2013-04-11T08:32:30Z</time>
      </trkpt>
      <trkpt lat="43.21452" lon="5.52315">
        <ele>40.99</ele>
        <time>2013-04-11T08:32:49Z</time>
      </trkpt>
      <trkpt lat="43.21433" lon="5.52318">
        <ele>40.03</ele>
        <time>2013-04-11T08:33:07Z</time>
      </trkpt>
      <trkpt lat="43.21402" lon="5.52331">
        <ele>41.95</ele>
        <time>2013-04-11T08:33:29Z</time>
      </trkpt>
      <trkpt lat="43.21384" lon="5.52344">
        <ele>43.88</ele>
        <time>2013-04-11T08:33:50Z</time>
      </trkpt>
      <trkpt lat="43.21372" lon="5.52351">
        <ele>41.95</ele>
        <time>2013-04-11T08:34:08Z</time>
      </trkpt>
      <trkpt lat="43.21361" lon="5.52364">
        <ele>37.63</ele>
        <time>2013-04-11T08:34:25Z</time>
      </trkpt>
      <trkpt lat="43.21347" lon="5.52368">
        <ele>40.03</ele>
        <time>2013-04-11T08:34:42Z</time>
      </trkpt>
      <trkpt lat="43.2133" lon="5.52345">
        <ele>28.98</ele>
        <time>2013-04-11T08:35:01Z</time>
      </trkpt>
      <trkpt lat="43.21318" lon="5.52325">
        <ele>17.92</ele>
        <time>2013-04-11T08:35:19Z</time>
      </trkpt>
      <trkpt lat="43.21302" lon="5.52324">
        <ele>15.52</ele>
        <time>2013-04-11T08:35:40Z</time>
      </trkpt>
      <trkpt lat="43.21282" lon="5.52329">
        <ele>11.19</ele>
        <time>2013-04-11T08:36:01Z</time>
      </trkpt>
      <trkpt lat="43.21267" lon="5.52318">
        <ele>8.79</ele>
        <time>2013-04-11T08:36:24Z</time>
      </trkpt>
      <trkpt lat="43.21282" lon="5.5228">
        <ele>17.92</ele>
        <time>2013-04-11T08:36:45Z</time>
      </trkpt>
      <trkpt lat="43.2128" lon="5.52256">
        <ele>29.94</ele>
        <time>2013-04-11T08:37:06Z</time>
      </trkpt>
      <trkpt lat="43.21246" lon="5.52239">
        <ele>19.84</ele>
        <time>2013-04-11T08:37:26Z</time>
      </trkpt>
      <trkpt lat="43.2123" lon="5.52228">
        <ele>18.4</ele>
        <time>2013-04-11T08:37:48Z</time>
      </trkpt>
      <trkpt lat="43.21224" lon="5.52209">
        <ele>17.44</ele>
        <time>2013-04-11T08:38:07Z</time>
      </trkpt>
      <trkpt lat="43.21206" lon="5.52203">
        <ele>16</ele>
        <time>2013-04-11T08:38:27Z</time>
      </trkpt>
      <trkpt lat="43.21202" lon="5.52203">
        <ele>16.96</ele>
        <time>2013-04-11T08:38:49Z</time>
      </trkpt>
      <trkpt lat="43.21197" lon="5.52207">
        <ele>14.56</ele>
        <time>2013-04-11T08:39:23Z</time>
      </trkpt>
      <trkpt lat="43.21185" lon="5.52173">
        <ele>12.15</ele>
        <time>2013-04-11T08:39:42Z</time>
      </trkpt>
      <trkpt lat="43.21183" lon="5.52168">
        <ele>11.19</ele>
        <time>2013-04-11T08:39:45Z</time>
      </trkpt>
      <trkpt lat="43.21168" lon="5.52133">
        <ele>10.23</ele>
        <time>2013-04-11T08:40:08Z</time>
      </trkpt>
      <trkpt lat="43.21155" lon="5.52106">
        <ele>6.87</ele>
        <time>2013-04-11T08:40:29Z</time>
      </trkpt>
      <trkpt lat="43.21135" lon="5.52082">
        <ele>8.31</ele>
        <time>2013-04-11T08:40:50Z</time>
      </trkpt>
      <trkpt lat="43.21117" lon="5.52068">
        <ele>8.79</ele>
        <time>2013-04-11T08:41:08Z</time>
      </trkpt>
      <trkpt lat="43.21093" lon="5.52044">
        <ele>8.79</ele>
        <time>2013-04-11T08:41:32Z</time>
      </trkpt>
      <trkpt lat="43.21071" lon="5.52024">
        <ele>8.79</ele>
        <time>2013-04-11T08:41:54Z</time>
      </trkpt>
      <trkpt lat="43.21054" lon="5.52003">
        <ele>9.27</ele>
        <time>2013-04-11T08:42:15Z</time>
      </trkpt>
      <trkpt lat="43.21032" lon="5.51982">
        <ele>9.75</ele>
        <time>2013-04-11T08:42:37Z</time>
      </trkpt>
      <trkpt lat="43.21013" lon="5.51961">
        <ele>8.79</ele>
        <time>2013-04-11T08:42:57Z</time>
      </trkpt>
      <trkpt lat="43.21" lon="5.51938">
        <ele>5.91</ele>
        <time>2013-04-11T08:43:18Z</time>
      </trkpt>
      <trkpt lat="43.2098" lon="5.51916">
        <ele>4.94</ele>
        <time>2013-04-11T08:43:40Z</time>
      </trkpt>
      <trkpt lat="43.20965" lon="5.51892">
        <ele>4.94</ele>
        <time>2013-04-11T08:44:02Z</time>
      </trkpt>
      <trkpt lat="43.20949" lon="5.51864">
        <ele>5.91</ele>
        <time>2013-04-11T08:44:24Z</time>
      </trkpt>
      <trkpt lat="43.20931" lon="5.51844">
        <ele>6.39</ele>
        <time>2013-04-11T08:44:47Z</time>
      </trkpt>
      <trkpt lat="43.20908" lon="5.5183">
        <ele>6.87</ele>
        <time>2013-04-11T08:45:11Z</time>
      </trkpt>
      <trkpt lat="43.20889" lon="5.51812">
        <ele>8.79</ele>
        <time>2013-04-11T08:45:32Z</time>
      </trkpt>
      <trkpt lat="43.20873" lon="5.51793">
        <ele>8.79</ele>
        <time>2013-04-11T08:45:53Z</time>
      </trkpt>
      <trkpt lat="43.20858" lon="5.51773">
        <ele>10.23</ele>
        <time>2013-04-11T08:46:14Z</time>
      </trkpt>
      <trkpt lat="43.20845" lon="5.51746">
        <ele>11.67</ele>
        <time>2013-04-11T08:46:35Z</time>
      </trkpt>
      <trkpt lat="43.20834" lon="5.51737">
        <ele>13.12</ele>
        <time>2013-04-11T08:46:54Z</time>
      </trkpt>
      <trkpt lat="43.20828" lon="5.51717">
        <ele>13.6</ele>
        <time>2013-04-11T08:47:07Z</time>
      </trkpt>
      <trkpt lat="43.20819" lon="5.51698">
        <ele>13.6</ele>
        <time>2013-04-11T08:47:22Z</time>
      </trkpt>
      <trkpt lat="43.20813" lon="5.51686">
        <ele>12.15</ele>
        <time>2013-04-11T08:47:38Z</time>
      </trkpt>
      <trkpt lat="43.20803" lon="5.51664">
        <ele>12.63</ele>
        <time>2013-04-11T08:47:57Z</time>
      </trkpt>
      <trkpt lat="43.20797" lon="5.51653">
        <ele>12.15</ele>
        <time>2013-04-11T08:48:13Z</time>
      </trkpt>
      <trkpt lat="43.20787" lon="5.51622">
        <ele>11.19</ele>
        <time>2013-04-11T08:48:31Z</time>
      </trkpt>
      <trkpt lat="43.2078" lon="5.51599">
        <ele>12.15</ele>
        <time>2013-04-11T08:48:48Z</time>
      </trkpt>
      <trkpt lat="43.20773" lon="5.51592">
        <ele>13.6</ele>
        <time>2013-04-11T08:48:56Z</time>
      </trkpt>
      <trkpt lat="43.2076" lon="5.5158">
        <ele>13.6</ele>
        <time>2013-04-11T08:49:09Z</time>
      </trkpt>
      <trkpt lat="43.20742" lon="5.51564">
        <ele>11.67</ele>
        <time>2013-04-11T08:49:29Z</time>
      </trkpt>
      <trkpt lat="43.20737" lon="5.51559">
        <ele>10.23</ele>
        <time>2013-04-11T08:49:34Z</time>
      </trkpt>
      <trkpt lat="43.20726" lon="5.51547">
        <ele>10.23</ele>
        <time>2013-04-11T08:49:47Z</time>
      </trkpt>
      <trkpt lat="43.2072" lon="5.51535">
        <ele>10.71</ele>
        <time>2013-04-11T08:49:58Z</time>
      </trkpt>
      <trkpt lat="43.20707" lon="5.51521">
        <ele>11.19</ele>
        <time>2013-04-11T08:50:15Z</time>
      </trkpt>
      <trkpt lat="43.2069" lon="5.51507">
        <ele>14.08</ele>
        <time>2013-04-11T08:50:31Z</time>
      </trkpt>
      <trkpt lat="43.2067" lon="5.51497">
        <ele>12.63</ele>
        <time>2013-04-11T08:50:50Z</time>
      </trkpt>
      <trkpt lat="43.20647" lon="5.51491">
        <ele>11.67</ele>
        <time>2013-04-11T08:51:11Z</time>
      </trkpt>
      <trkpt lat="43.20627" lon="5.5149">
        <ele>10.23</ele>
        <time>2013-04-11T08:51:28Z</time>
      </trkpt>
      <trkpt lat="43.20607" lon="5.51481">
        <ele>6.39</ele>
        <time>2013-04-11T08:51:47Z</time>
      </trkpt>
      <trkpt lat="43.20591" lon="5.51479">
        <ele>4.46</ele>
        <time>2013-04-11T08:52:03Z</time>
      </trkpt>
      <trkpt lat="43.20576" lon="5.5147">
        <ele>4.94</ele>
        <time>2013-04-11T08:52:20Z</time>
      </trkpt>
      <trkpt lat="43.2057" lon="5.5145">
        <ele>6.87</ele>
        <time>2013-04-11T08:52:36Z</time>
      </trkpt>
      <trkpt lat="43.20571" lon="5.51435">
        <ele>5.42</ele>
        <time>2013-04-11T08:52:51Z</time>
      </trkpt>
      <trkpt lat="43.20576" lon="5.51422">
        <ele>-0.34</ele>
        <time>2013-04-11T08:53:06Z</time>
      </trkpt>
      <trkpt lat="43.20579" lon="5.5141">
        <ele>-3.23</ele>
        <time>2013-04-11T08:53:19Z</time>
      </trkpt>
      <trkpt lat="43.2058" lon="5.51396">
        <ele>0.62</ele>
        <time>2013-04-11T08:53:34Z</time>
      </trkpt>
      <trkpt lat="43.20579" lon="5.51374">
        <ele>2.54</ele>
        <time>2013-04-11T08:53:50Z</time>
      </trkpt>
      <trkpt lat="43.20575" lon="5.5136">
        <ele>6.39</ele>
        <time>2013-04-11T08:54:07Z</time>
      </trkpt>
      <trkpt lat="43.20567" lon="5.51344">
        <ele>13.12</ele>
        <time>2013-04-11T08:54:25Z</time>
      </trkpt>
      <trkpt lat="43.20558" lon="5.5133">
        <ele>12.15</ele>
        <time>2013-04-11T08:54:38Z</time>
      </trkpt>
      <trkpt lat="43.2055" lon="5.51318">
        <ele>16</ele>
        <time>2013-04-11T08:54:57Z</time>
      </trkpt>
      <trkpt lat="43.20551" lon="5.51302">
        <ele>17.44</ele>
        <time>2013-04-11T08:55:17Z</time>
      </trkpt>
      <trkpt lat="43.20549" lon="5.51299">
        <ele>18.4</ele>
        <time>2013-04-11T08:55:31Z</time>
      </trkpt>
      <trkpt lat="43.20553" lon="5.51301">
        <ele>20.32</ele>
        <time>2013-04-11T08:55:48Z</time>
      </trkpt>
      <trkpt lat="43.20551" lon="5.51299">
        <ele>20.81</ele>
        <time>2013-04-11T08:56:03Z</time>
      </trkpt>
      <trkpt lat="43.20548" lon="5.513">
        <ele>21.77</ele>
        <time>2013-04-11T08:56:27Z</time>
      </trkpt>
      <trkpt lat="43.20546" lon="5.51305">
        <ele>21.77</ele>
        <time>2013-04-11T08:56:58Z</time>
      </trkpt>
      <trkpt lat="43.20547" lon="5.51301">
        <ele>22.73</ele>
        <time>2013-04-11T08:57:20Z</time>
      </trkpt>
      <trkpt lat="43.20552" lon="5.51291">
        <ele>21.77</ele>
        <time>2013-04-11T08:57:37Z</time>
      </trkpt>
      <trkpt lat="43.20547" lon="5.51296">
        <ele>29.46</ele>
        <time>2013-04-11T08:57:52Z</time>
      </trkpt>
      <trkpt lat="43.20551" lon="5.51299">
        <ele>26.09</ele>
        <time>2013-04-11T08:58:22Z</time>
      </trkpt>
      <trkpt lat="43.20549" lon="5.51295">
        <ele>20.81</ele>
        <time>2013-04-11T08:58:42Z</time>
      </trkpt>
      <trkpt lat="43.20554" lon="5.51294">
        <ele>19.36</ele>
        <time>2013-04-11T08:58:53Z</time>
      </trkpt>
      <trkpt lat="43.20558" lon="5.51297">
        <ele>17.44</ele>
        <time>2013-04-11T08:59:12Z</time>
      </trkpt>
      <trkpt lat="43.20556" lon="5.513">
        <ele>19.84</ele>
        <time>2013-04-11T08:59:31Z</time>
      </trkpt>
      <trkpt lat="43.20552" lon="5.51296">
        <ele>15.04</ele>
        <time>2013-04-11T08:59:42Z</time>
      </trkpt>
      <trkpt lat="43.20552" lon="5.51294">
        <ele>14.56</ele>
        <time>2013-04-11T08:59:45Z</time>
      </trkpt>
      <trkpt lat="43.20539" lon="5.5128">
        <ele>13.12</ele>
        <time>2013-04-11T08:59:59Z</time>
      </trkpt>
      <trkpt lat="43.20531" lon="5.51277">
        <ele>13.6</ele>
        <time>2013-04-11T09:00:13Z</time>
      </trkpt>
      <trkpt lat="43.20523" lon="5.51269">
        <ele>14.56</ele>
        <time>2013-04-11T09:00:27Z</time>
      </trkpt>
      <trkpt lat="43.20515" lon="5.51259">
        <ele>10.71</ele>
        <time>2013-04-11T09:00:42Z</time>
      </trkpt>
      <trkpt lat="43.20506" lon="5.51248">
        <ele>8.79</ele>
        <time>2013-04-11T09:00:59Z</time>
      </trkpt>
      <trkpt lat="43.20499" lon="5.51239">
        <ele>6.39</ele>
        <time>2013-04-11T09:01:13Z</time>
      </trkpt>
      <trkpt lat="43.20493" lon="5.5123">
        <ele>6.87</ele>
        <time>2013-04-11T09:01:28Z</time>
      </trkpt>
      <trkpt lat="43.20489" lon="5.51224">
        <ele>11.19</ele>
        <time>2013-04-11T09:01:40Z</time>
      </trkpt>
      <trkpt lat="43.20488" lon="5.51218">
        <ele>13.12</ele>
        <time>2013-04-11T09:01:53Z</time>
      </trkpt>
      <trkpt lat="43.20488" lon="5.51212">
        <ele>13.6</ele>
        <time>2013-04-11T09:02:05Z</time>
      </trkpt>
      <trkpt lat="43.2049" lon="5.51202">
        <ele>15.52</ele>
        <time>2013-04-11T09:02:23Z</time>
      </trkpt>
      <trkpt lat="43.20485" lon="5.51199">
        <ele>17.44</ele>
        <time>2013-04-11T09:02:36Z</time>
      </trkpt>
      <trkpt lat="43.20482" lon="5.51191">
        <ele>14.56</ele>
        <time>2013-04-11T09:02:50Z</time>
      </trkpt>
      <trkpt lat="43.20477" lon="5.51186">
        <ele>20.32</ele>
        <time>2013-04-11T09:03:04Z</time>
      </trkpt>
      <trkpt lat="43.20472" lon="5.51181">
        <ele>25.13</ele>
        <time>2013-04-11T09:03:20Z</time>
      </trkpt>
      <trkpt lat="43.20467" lon="5.51176">
        <ele>24.65</ele>
        <time>2013-04-11T09:03:37Z</time>
      </trkpt>
      <trkpt lat="43.20462" lon="5.51177">
        <ele>27.53</ele>
        <time>2013-04-11T09:03:51Z</time>
      </trkpt>
      <trkpt lat="43.20454" lon="5.51177">
        <ele>30.9</ele>
        <time>2013-04-11T09:04:06Z</time>
      </trkpt>
      <trkpt lat="43.20448" lon="5.51181">
        <ele>30.9</ele>
        <time>2013-04-11T09:04:20Z</time>
      </trkpt>
      <trkpt lat="43.20438" lon="5.51176">
        <ele>28.5</ele>
        <time>2013-04-11T09:04:31Z</time>
      </trkpt>
      <trkpt lat="43.20432" lon="5.51172">
        <ele>28.5</ele>
        <time>2013-04-11T09:04:44Z</time>
      </trkpt>
      <trkpt lat="43.20424" lon="5.51169">
        <ele>27.53</ele>
        <time>2013-04-11T09:04:59Z</time>
      </trkpt>
      <trkpt lat="43.20419" lon="5.51169">
        <ele>27.05</ele>
        <time>2013-04-11T09:05:11Z</time>
      </trkpt>
      <trkpt lat="43.20416" lon="5.51169">
        <ele>27.53</ele>
        <time>2013-04-11T09:05:26Z</time>
      </trkpt>
      <trkpt lat="43.2041" lon="5.51171">
        <ele>24.17</ele>
        <time>2013-04-11T09:05:39Z</time>
      </trkpt>
      <trkpt lat="43.20403" lon="5.51169">
        <ele>25.13</ele>
        <time>2013-04-11T09:05:52Z</time>
      </trkpt>
      <trkpt lat="43.20402" lon="5.51169">
        <ele>25.13</ele>
        <time>2013-04-11T09:05:55Z</time>
      </trkpt>
      <trkpt lat="43.20396" lon="5.51176">
        <ele>25.13</ele>
        <time>2013-04-11T09:06:10Z</time>
      </trkpt>
      <trkpt lat="43.20385" lon="5.51175">
        <ele>25.13</ele>
        <time>2013-04-11T09:06:22Z</time>
      </trkpt>
      <trkpt lat="43.20375" lon="5.51178">
        <ele>24.65</ele>
        <time>2013-04-11T09:06:35Z</time>
      </trkpt>
      <trkpt lat="43.20371" lon="5.51179">
        <ele>23.21</ele>
        <time>2013-04-11T09:06:42Z</time>
      </trkpt>
      <trkpt lat="43.20356" lon="5.51177">
        <ele>25.13</ele>
        <time>2013-04-11T09:06:55Z</time>
      </trkpt>
      <trkpt lat="43.20344" lon="5.51176">
        <ele>23.69</ele>
        <time>2013-04-11T09:07:07Z</time>
      </trkpt>
      <trkpt lat="43.20332" lon="5.51179">
        <ele>24.65</ele>
        <time>2013-04-11T09:07:20Z</time>
      </trkpt>
      <trkpt lat="43.20322" lon="5.51175">
        <ele>21.29</ele>
        <time>2013-04-11T09:07:34Z</time>
      </trkpt>
      <trkpt lat="43.20318" lon="5.5117">
        <ele>20.32</ele>
        <time>2013-04-11T09:07:48Z</time>
      </trkpt>
      <trkpt lat="43.20314" lon="5.51169">
        <ele>20.32</ele>
        <time>2013-04-11T09:08:02Z</time>
      </trkpt>
      <trkpt lat="43.20316" lon="5.51177">
        <ele>20.81</ele>
        <time>2013-04-11T09:08:16Z</time>
      </trkpt>
      <trkpt lat="43.20316" lon="5.51179">
        <ele>20.81</ele>
        <time>2013-04-11T09:08:33Z</time>
      </trkpt>
      <trkpt lat="43.20319" lon="5.51178">
        <ele>22.25</ele>
        <time>2013-04-11T09:08:51Z</time>
      </trkpt>
      <trkpt lat="43.20321" lon="5.51178">
        <ele>25.61</ele>
        <time>2013-04-11T09:09:14Z</time>
      </trkpt>
      <trkpt lat="43.2032" lon="5.51177">
        <ele>25.61</ele>
        <time>2013-04-11T09:09:33Z</time>
      </trkpt>
      <trkpt lat="43.20315" lon="5.51175">
        <ele>25.13</ele>
        <time>2013-04-11T09:10:01Z</time>
      </trkpt>
      <trkpt lat="43.20316" lon="5.51176">
        <ele>25.13</ele>
        <time>2013-04-11T09:10:16Z</time>
      </trkpt>
      <trkpt lat="43.20317" lon="5.51177">
        <ele>22.25</ele>
        <time>2013-04-11T09:10:33Z</time>
      </trkpt>
      <trkpt lat="43.20319" lon="5.51176">
        <ele>23.69</ele>
        <time>2013-04-11T09:10:55Z</time>
      </trkpt>
      <trkpt lat="43.20317" lon="5.51172">
        <ele>22.73</ele>
        <time>2013-04-11T09:11:12Z</time>
      </trkpt>
      <trkpt lat="43.20314" lon="5.51172">
        <ele>23.21</ele>
        <time>2013-04-11T09:11:22Z</time>
      </trkpt>
      <trkpt lat="43.20316" lon="5.51174">
        <ele>22.25</ele>
        <time>2013-04-11T09:11:48Z</time>
      </trkpt>
      <trkpt lat="43.20313" lon="5.51167">
        <ele>22.73</ele>
        <time>2013-04-11T09:12:04Z</time>
      </trkpt>
      <trkpt lat="43.20316" lon="5.51167">
        <ele>23.21</ele>
        <time>2013-04-11T09:12:26Z</time>
      </trkpt>
      <trkpt lat="43.20317" lon="5.51165">
        <ele>23.21</ele>
        <time>2013-04-11T09:12:39Z</time>
      </trkpt>
      <trkpt lat="43.20322" lon="5.51159">
        <ele>19.84</ele>
        <time>2013-04-11T09:12:52Z</time>
      </trkpt>
      <trkpt lat="43.20324" lon="5.5115">
        <ele>15.04</ele>
        <time>2013-04-11T09:13:04Z</time>
      </trkpt>
      <trkpt lat="43.20331" lon="5.51143">
        <ele>11.67</ele>
        <time>2013-04-11T09:13:20Z</time>
      </trkpt>
      <trkpt lat="43.20333" lon="5.5114">
        <ele>7.83</ele>
        <time>2013-04-11T09:13:35Z</time>
      </trkpt>
      <trkpt lat="43.20335" lon="5.51132">
        <ele>6.87</ele>
        <time>2013-04-11T09:13:50Z</time>
      </trkpt>
      <trkpt lat="43.20342" lon="5.51132">
        <ele>5.91</ele>
        <time>2013-04-11T09:14:02Z</time>
      </trkpt>
      <trkpt lat="43.20352" lon="5.51126">
        <ele>5.42</ele>
        <time>2013-04-11T09:14:16Z</time>
      </trkpt>
      <trkpt lat="43.20359" lon="5.51124">
        <ele>3.5</ele>
        <time>2013-04-11T09:14:29Z</time>
      </trkpt>
      <trkpt lat="43.20363" lon="5.51119">
        <ele>3.98</ele>
        <time>2013-04-11T09:14:44Z</time>
      </trkpt>
      <trkpt lat="43.2036" lon="5.51119">
        <ele>3.02</ele>
        <time>2013-04-11T09:15:00Z</time>
      </trkpt>
      <trkpt lat="43.20365" lon="5.51117">
        <ele>3.02</ele>
        <time>2013-04-11T09:15:13Z</time>
      </trkpt>
      <trkpt lat="43.20369" lon="5.51113">
        <ele>3.02</ele>
        <time>2013-04-11T09:15:24Z</time>
      </trkpt>
      <trkpt lat="43.20375" lon="5.51107">
        <ele>1.1</ele>
        <time>2013-04-11T09:15:36Z</time>
      </trkpt>
      <trkpt lat="43.20381" lon="5.51104">
        <ele>-0.34</ele>
        <time>2013-04-11T09:15:49Z</time>
      </trkpt>
      <trkpt lat="43.20386" lon="5.511">
        <ele>0.62</ele>
        <time>2013-04-11T09:16:00Z</time>
      </trkpt>
      <trkpt lat="43.20387" lon="5.511">
        <ele>0.62</ele>
        <time>2013-04-11T09:16:01Z</time>
      </trkpt>
      <trkpt lat="43.20393" lon="5.51095">
        <ele>-0.82</ele>
        <time>2013-04-11T09:16:13Z</time>
      </trkpt>
      <trkpt lat="43.20395" lon="5.5109">
        <ele>0.62</ele>
        <time>2013-04-11T09:16:24Z</time>
      </trkpt>
      <trkpt lat="43.20401" lon="5.5108">
        <ele>1.58</ele>
        <time>2013-04-11T09:16:37Z</time>
      </trkpt>
      <trkpt lat="43.20404" lon="5.5107">
        <ele>-0.82</ele>
        <time>2013-04-11T09:16:50Z</time>
      </trkpt>
      <trkpt lat="43.20402" lon="5.51067">
        <ele>-1.79</ele>
        <time>2013-04-11T09:17:07Z</time>
      </trkpt>
      <trkpt lat="43.20406" lon="5.51068">
        <ele>1.58</ele>
        <time>2013-04-11T09:17:23Z</time>
      </trkpt>
      <trkpt lat="43.20404" lon="5.51071">
        <ele>2.54</ele>
        <time>2013-04-11T09:17:44Z</time>
      </trkpt>
      <trkpt lat="43.20403" lon="5.5107">
        <ele>3.98</ele>
        <time>2013-04-11T09:17:57Z</time>
      </trkpt>
      <trkpt lat="43.20403" lon="5.51071">
        <ele>5.42</ele>
        <time>2013-04-11T09:18:20Z</time>
      </trkpt>
      <trkpt lat="43.20397" lon="5.51057">
        <ele>4.46</ele>
        <time>2013-04-11T09:18:34Z</time>
      </trkpt>
      <trkpt lat="43.20392" lon="5.51049">
        <ele>2.54</ele>
        <time>2013-04-11T09:18:47Z</time>
      </trkpt>
      <trkpt lat="43.2039" lon="5.51048">
        <ele>3.98</ele>
        <time>2013-04-11T09:19:04Z</time>
      </trkpt>
      <trkpt lat="43.20385" lon="5.51055">
        <ele>4.94</ele>
        <time>2013-04-11T09:19:16Z</time>
      </trkpt>
      <trkpt lat="43.20378" lon="5.51059">
        <ele>4.94</ele>
        <time>2013-04-11T09:19:29Z</time>
      </trkpt>
      <trkpt lat="43.20375" lon="5.51059">
        <ele>6.87</ele>
        <time>2013-04-11T09:19:42Z</time>
      </trkpt>
      <trkpt lat="43.20368" lon="5.51053">
        <ele>8.79</ele>
        <time>2013-04-11T09:19:58Z</time>
      </trkpt>
      <trkpt lat="43.20365" lon="5.5105">
        <ele>8.79</ele>
        <time>2013-04-11T09:20:10Z</time>
      </trkpt>
      <trkpt lat="43.20365" lon="5.51041">
        <ele>8.31</ele>
        <time>2013-04-11T09:20:25Z</time>
      </trkpt>
      <trkpt lat="43.20362" lon="5.51036">
        <ele>7.83</ele>
        <time>2013-04-11T09:20:40Z</time>
      </trkpt>
      <trkpt lat="43.20357" lon="5.51029">
        <ele>10.23</ele>
        <time>2013-04-11T09:20:54Z</time>
      </trkpt>
      <trkpt lat="43.20352" lon="5.51025">
        <ele>12.63</ele>
        <time>2013-04-11T09:21:08Z</time>
      </trkpt>
      <trkpt lat="43.20349" lon="5.51018">
        <ele>15.52</ele>
        <time>2013-04-11T09:21:24Z</time>
      </trkpt>
      <trkpt lat="43.20351" lon="5.51018">
        <ele>15.52</ele>
        <time>2013-04-11T09:21:38Z</time>
      </trkpt>
      <trkpt lat="43.20354" lon="5.51007">
        <ele>17.44</ele>
        <time>2013-04-11T09:21:52Z</time>
      </trkpt>
      <trkpt lat="43.20351" lon="5.51003">
        <ele>20.32</ele>
        <time>2013-04-11T09:22:05Z</time>
      </trkpt>
      <trkpt lat="43.20352" lon="5.50999">
        <ele>23.21</ele>
        <time>2013-04-11T09:22:20Z</time>
      </trkpt>
      <trkpt lat="43.20353" lon="5.50995">
        <ele>25.13</ele>
        <time>2013-04-11T09:22:35Z</time>
      </trkpt>
      <trkpt lat="43.20351" lon="5.50999">
        <ele>25.61</ele>
        <time>2013-04-11T09:22:47Z</time>
      </trkpt>
      <trkpt lat="43.20349" lon="5.51001">
        <ele>27.53</ele>
        <time>2013-04-11T09:23:03Z</time>
      </trkpt>
      <trkpt lat="43.20351" lon="5.50994">
        <ele>25.13</ele>
        <time>2013-04-11T09:23:16Z</time>
      </trkpt>
      <trkpt lat="43.20352" lon="5.5099">
        <ele>27.05</ele>
        <time>2013-04-11T09:23:33Z</time>
      </trkpt>
      <trkpt lat="43.20351" lon="5.5099">
        <ele>28.02</ele>
        <time>2013-04-11T09:23:47Z</time>
      </trkpt>
      <trkpt lat="43.2035" lon="5.50983">
        <ele>27.53</ele>
        <time>2013-04-11T09:24:01Z</time>
      </trkpt>
      <trkpt lat="43.20352" lon="5.50973">
        <ele>30.9</ele>
        <time>2013-04-11T09:24:14Z</time>
      </trkpt>
      <trkpt lat="43.20357" lon="5.50962">
        <ele>33.3</ele>
        <time>2013-04-11T09:24:30Z</time>
      </trkpt>
      <trkpt lat="43.20356" lon="5.50949">
        <ele>35.23</ele>
        <time>2013-04-11T09:24:48Z</time>
      </trkpt>
      <trkpt lat="43.20356" lon="5.50943">
        <ele>36.67</ele>
        <time>2013-04-11T09:25:02Z</time>
      </trkpt>
      <trkpt lat="43.20356" lon="5.50942">
        <ele>37.15</ele>
        <time>2013-04-11T09:25:18Z</time>
      </trkpt>
      <trkpt lat="43.20355" lon="5.50939">
        <ele>36.67</ele>
        <time>2013-04-11T09:25:50Z</time>
      </trkpt>
      <trkpt lat="43.20356" lon="5.50939">
        <ele>38.11</ele>
        <time>2013-04-11T09:26:14Z</time>
      </trkpt>
      <trkpt lat="43.20354" lon="5.50933">
        <ele>37.63</ele>
        <time>2013-04-11T09:26:36Z</time>
      </trkpt>
      <trkpt lat="43.20353" lon="5.50924">
        <ele>40.51</ele>
        <time>2013-04-11T09:26:50Z</time>
      </trkpt>
      <trkpt lat="43.20352" lon="5.50915">
        <ele>42.92</ele>
        <time>2013-04-11T09:27:07Z</time>
      </trkpt>
      <trkpt lat="43.20352" lon="5.50908">
        <ele>45.8</ele>
        <time>2013-04-11T09:27:21Z</time>
      </trkpt>
      <trkpt lat="43.2035" lon="5.50907">
        <ele>46.76</ele>
        <time>2013-04-11T09:27:34Z</time>
      </trkpt>
      <trkpt lat="43.20345" lon="5.5091">
        <ele>48.2</ele>
        <time>2013-04-11T09:27:47Z</time>
      </trkpt>
      <trkpt lat="43.20345" lon="5.50902">
        <ele>48.2</ele>
        <time>2013-04-11T09:27:57Z</time>
      </trkpt>
      <trkpt lat="43.20343" lon="5.50897">
        <ele>50.13</ele>
        <time>2013-04-11T09:28:14Z</time>
      </trkpt>
      <trkpt lat="43.2034" lon="5.509">
        <ele>49.16</ele>
        <time>2013-04-11T09:28:28Z</time>
      </trkpt>
      <trkpt lat="43.20342" lon="5.50897">
        <ele>48.2</ele>
        <time>2013-04-11T09:28:47Z</time>
      </trkpt>
      <trkpt lat="43.20339" lon="5.50887">
        <ele>48.2</ele>
        <time>2013-04-11T09:29:02Z</time>
      </trkpt>
      <trkpt lat="43.20335" lon="5.50875">
        <ele>51.09</ele>
        <time>2013-04-11T09:29:18Z</time>
      </trkpt>
      <trkpt lat="43.2033" lon="5.50864">
        <ele>53.49</ele>
        <time>2013-04-11T09:29:33Z</time>
      </trkpt>
      <trkpt lat="43.20327" lon="5.50858">
        <ele>55.41</ele>
        <time>2013-04-11T09:29:53Z</time>
      </trkpt>
      <trkpt lat="43.20327" lon="5.50858">
        <ele>55.89</ele>
        <time>2013-04-11T09:30:05Z</time>
      </trkpt>
      <trkpt lat="43.2032" lon="5.50856">
        <ele>57.82</ele>
        <time>2013-04-11T09:30:18Z</time>
      </trkpt>
      <trkpt lat="43.20314" lon="5.50858">
        <ele>55.89</ele>
        <time>2013-04-11T09:30:30Z</time>
      </trkpt>
      <trkpt lat="43.20306" lon="5.50861">
        <ele>55.41</ele>
        <time>2013-04-11T09:30:43Z</time>
      </trkpt>
      <trkpt lat="43.20297" lon="5.5086">
        <ele>54.45</ele>
        <time>2013-04-11T09:30:54Z</time>
      </trkpt>
      <trkpt lat="43.20286" lon="5.5085">
        <ele>53.97</ele>
        <time>2013-04-11T09:31:10Z</time>
      </trkpt>
      <trkpt lat="43.20283" lon="5.50852">
        <ele>56.86</ele>
        <time>2013-04-11T09:31:25Z</time>
      </trkpt>
      <trkpt lat="43.20276" lon="5.50848">
        <ele>59.26</ele>
        <time>2013-04-11T09:31:38Z</time>
      </trkpt>
      <trkpt lat="43.20273" lon="5.50841">
        <ele>58.78</ele>
        <time>2013-04-11T09:31:47Z</time>
      </trkpt>
      <trkpt lat="43.20264" lon="5.50832">
        <ele>54.93</ele>
        <time>2013-04-11T09:32:00Z</time>
      </trkpt>
      <trkpt lat="43.20256" lon="5.50816">
        <ele>52.05</ele>
        <time>2013-04-11T09:32:15Z</time>
      </trkpt>
      <trkpt lat="43.20253" lon="5.50809">
        <ele>53.01</ele>
        <time>2013-04-11T09:32:27Z</time>
      </trkpt>
      <trkpt lat="43.20246" lon="5.50806">
        <ele>53.97</ele>
        <time>2013-04-11T09:32:38Z</time>
      </trkpt>
      <trkpt lat="43.20244" lon="5.50805">
        <ele>53.97</ele>
        <time>2013-04-11T09:32:41Z</time>
      </trkpt>
      <trkpt lat="43.20237" lon="5.50799">
        <ele>56.37</ele>
        <time>2013-04-11T09:32:53Z</time>
      </trkpt>
      <trkpt lat="43.20234" lon="5.50798">
        <ele>55.89</ele>
        <time>2013-04-11T09:33:03Z</time>
      </trkpt>
      <trkpt lat="43.20232" lon="5.50799">
        <ele>54.45</ele>
        <time>2013-04-11T09:33:17Z</time>
      </trkpt>
      <trkpt lat="43.20229" lon="5.50804">
        <ele>53.01</ele>
        <time>2013-04-11T09:33:29Z</time>
      </trkpt>
      <trkpt lat="43.20226" lon="5.50806">
        <ele>52.05</ele>
        <time>2013-04-11T09:33:37Z</time>
      </trkpt>
      <trkpt lat="43.20212" lon="5.50807">
        <ele>49.16</ele>
        <time>2013-04-11T09:33:54Z</time>
      </trkpt>
      <trkpt lat="43.20209" lon="5.50804">
        <ele>46.76</ele>
        <time>2013-04-11T09:34:10Z</time>
      </trkpt>
      <trkpt lat="43.202" lon="5.50803">
        <ele>44.84</ele>
        <time>2013-04-11T09:34:21Z</time>
      </trkpt>
      <trkpt lat="43.20199" lon="5.50801">
        <ele>44.36</ele>
        <time>2013-04-11T09:34:23Z</time>
      </trkpt>
      <trkpt lat="43.20196" lon="5.50798">
        <ele>44.36</ele>
        <time>2013-04-11T09:34:27Z</time>
      </trkpt>
      <trkpt lat="43.20186" lon="5.50787">
        <ele>45.8</ele>
        <time>2013-04-11T09:34:40Z</time>
      </trkpt>
      <trkpt lat="43.20176" lon="5.50772">
        <ele>48.2</ele>
        <time>2013-04-11T09:34:56Z</time>
      </trkpt>
      <trkpt lat="43.20169" lon="5.50764">
        <ele>48.68</ele>
        <time>2013-04-11T09:35:09Z</time>
      </trkpt>
      <trkpt lat="43.20164" lon="5.50757">
        <ele>49.16</ele>
        <time>2013-04-11T09:35:24Z</time>
      </trkpt>
      <trkpt lat="43.20156" lon="5.50746">
        <ele>50.61</ele>
        <time>2013-04-11T09:35:35Z</time>
      </trkpt>
      <trkpt lat="43.20147" lon="5.50733">
        <ele>52.05</ele>
        <time>2013-04-11T09:35:51Z</time>
      </trkpt>
      <trkpt lat="43.20139" lon="5.50722">
        <ele>54.45</ele>
        <time>2013-04-11T09:36:05Z</time>
      </trkpt>
      <trkpt lat="43.20127" lon="5.50709">
        <ele>54.45</ele>
        <time>2013-04-11T09:36:19Z</time>
      </trkpt>
      <trkpt lat="43.2012" lon="5.50704">
        <ele>52.05</ele>
        <time>2013-04-11T09:36:32Z</time>
      </trkpt>
      <trkpt lat="43.20112" lon="5.50698">
        <ele>49.65</ele>
        <time>2013-04-11T09:36:47Z</time>
      </trkpt>
      <trkpt lat="43.20106" lon="5.50697">
        <ele>46.76</ele>
        <time>2013-04-11T09:36:58Z</time>
      </trkpt>
      <trkpt lat="43.20095" lon="5.50696">
        <ele>42.44</ele>
        <time>2013-04-11T09:37:13Z</time>
      </trkpt>
      <trkpt lat="43.20087" lon="5.50699">
        <ele>39.55</ele>
        <time>2013-04-11T09:37:27Z</time>
      </trkpt>
      <trkpt lat="43.20078" lon="5.507">
        <ele>37.15</ele>
        <time>2013-04-11T09:37:40Z</time>
      </trkpt>
      <trkpt lat="43.20076" lon="5.50701">
        <ele>36.67</ele>
        <time>2013-04-11T09:37:43Z</time>
      </trkpt>
      <trkpt lat="43.20063" lon="5.50702">
        <ele>31.86</ele>
        <time>2013-04-11T09:37:56Z</time>
      </trkpt>
      <trkpt lat="43.20053" lon="5.50702">
        <ele>30.42</ele>
        <time>2013-04-11T09:38:09Z</time>
      </trkpt>
      <trkpt lat="43.20054" lon="5.50695">
        <ele>27.53</ele>
        <time>2013-04-11T09:38:16Z</time>
      </trkpt>
      <trkpt lat="43.20042" lon="5.50684">
        <ele>27.05</ele>
        <time>2013-04-11T09:38:31Z</time>
      </trkpt>
      <trkpt lat="43.20034" lon="5.5068">
        <ele>30.42</ele>
        <time>2013-04-11T09:38:47Z</time>
      </trkpt>
      <trkpt lat="43.20033" lon="5.5068">
        <ele>30.42</ele>
        <time>2013-04-11T09:39:05Z</time>
      </trkpt>
      <trkpt lat="43.20033" lon="5.50682">
        <ele>31.86</ele>
        <time>2013-04-11T09:39:22Z</time>
      </trkpt>
      <trkpt lat="43.20033" lon="5.50676">
        <ele>28.5</ele>
        <time>2013-04-11T09:39:44Z</time>
      </trkpt>
      <trkpt lat="43.20034" lon="5.50676">
        <ele>28.98</ele>
        <time>2013-04-11T09:40:09Z</time>
      </trkpt>
      <trkpt lat="43.20032" lon="5.50675">
        <ele>29.94</ele>
        <time>2013-04-11T09:40:35Z</time>
      </trkpt>
      <trkpt lat="43.20029" lon="5.50665">
        <ele>28.02</ele>
        <time>2013-04-11T09:40:47Z</time>
      </trkpt>
      <trkpt lat="43.20026" lon="5.50656">
        <ele>27.53</ele>
        <time>2013-04-11T09:41:00Z</time>
      </trkpt>
      <trkpt lat="43.20021" lon="5.50645">
        <ele>29.46</ele>
        <time>2013-04-11T09:41:14Z</time>
      </trkpt>
      <trkpt lat="43.20017" lon="5.50636">
        <ele>31.86</ele>
        <time>2013-04-11T09:41:29Z</time>
      </trkpt>
      <trkpt lat="43.20018" lon="5.50629">
        <ele>32.34</ele>
        <time>2013-04-11T09:41:43Z</time>
      </trkpt>
      <trkpt lat="43.20017" lon="5.50618">
        <ele>34.26</ele>
        <time>2013-04-11T09:42:00Z</time>
      </trkpt>
      <trkpt lat="43.20014" lon="5.5061">
        <ele>35.71</ele>
        <time>2013-04-11T09:42:16Z</time>
      </trkpt>
      <trkpt lat="43.20012" lon="5.50601">
        <ele>36.19</ele>
        <time>2013-04-11T09:42:31Z</time>
      </trkpt>
      <trkpt lat="43.20015" lon="5.50592">
        <ele>39.55</ele>
        <time>2013-04-11T09:42:48Z</time>
      </trkpt>
      <trkpt lat="43.20015" lon="5.50587">
        <ele>42.92</ele>
        <time>2013-04-11T09:43:01Z</time>
      </trkpt>
      <trkpt lat="43.20015" lon="5.50582">
        <ele>43.88</ele>
        <time>2013-04-11T09:43:13Z</time>
      </trkpt>
      <trkpt lat="43.2002" lon="5.50576">
        <ele>44.36</ele>
        <time>2013-04-11T09:43:27Z</time>
      </trkpt>
      <trkpt lat="43.20025" lon="5.50568">
        <ele>45.8</ele>
        <time>2013-04-11T09:43:45Z</time>
      </trkpt>
      <trkpt lat="43.20027" lon="5.50559">
        <ele>45.8</ele>
        <time>2013-04-11T09:44:01Z</time>
      </trkpt>
      <trkpt lat="43.20031" lon="5.50551">
        <ele>50.61</ele>
        <time>2013-04-11T09:44:18Z</time>
      </trkpt>
      <trkpt lat="43.20036" lon="5.5054">
        <ele>52.53</ele>
        <time>2013-04-11T09:44:34Z</time>
      </trkpt>
      <trkpt lat="43.20036" lon="5.5054">
        <ele>54.45</ele>
        <time>2013-04-11T09:44:48Z</time>
      </trkpt>
      <trkpt lat="43.20042" lon="5.50536">
        <ele>54.45</ele>
        <time>2013-04-11T09:44:59Z</time>
      </trkpt>
      <trkpt lat="43.2005" lon="5.5053">
        <ele>57.82</ele>
        <time>2013-04-11T09:45:15Z</time>
      </trkpt>
      <trkpt lat="43.20054" lon="5.50522">
        <ele>57.82</ele>
        <time>2013-04-11T09:45:23Z</time>
      </trkpt>
      <trkpt lat="43.2006" lon="5.5051">
        <ele>58.78</ele>
        <time>2013-04-11T09:45:37Z</time>
      </trkpt>
      <trkpt lat="43.20065" lon="5.50503">
        <ele>60.7</ele>
        <time>2013-04-11T09:45:51Z</time>
      </trkpt>
      <trkpt lat="43.20068" lon="5.50495">
        <ele>61.66</ele>
        <time>2013-04-11T09:46:05Z</time>
      </trkpt>
      <trkpt lat="43.20075" lon="5.50481">
        <ele>61.66</ele>
        <time>2013-04-11T09:46:21Z</time>
      </trkpt>
      <trkpt lat="43.20076" lon="5.50473">
        <ele>60.7</ele>
        <time>2013-04-11T09:46:35Z</time>
      </trkpt>
      <trkpt lat="43.2008" lon="5.5046">
        <ele>60.22</ele>
        <time>2013-04-11T09:46:48Z</time>
      </trkpt>
      <trkpt lat="43.20083" lon="5.50448">
        <ele>59.74</ele>
        <time>2013-04-11T09:47:04Z</time>
      </trkpt>
      <trkpt lat="43.20082" lon="5.50435">
        <ele>63.1</ele>
        <time>2013-04-11T09:47:17Z</time>
      </trkpt>
      <trkpt lat="43.20082" lon="5.50424">
        <ele>65.99</ele>
        <time>2013-04-11T09:47:29Z</time>
      </trkpt>
      <trkpt lat="43.20084" lon="5.50414">
        <ele>66.47</ele>
        <time>2013-04-11T09:47:42Z</time>
      </trkpt>
      <trkpt lat="43.20089" lon="5.50403">
        <ele>65.99</ele>
        <time>2013-04-11T09:47:57Z</time>
      </trkpt>
      <trkpt lat="43.20095" lon="5.50396">
        <ele>68.39</ele>
        <time>2013-04-11T09:48:11Z</time>
      </trkpt>
      <trkpt lat="43.20103" lon="5.50388">
        <ele>70.79</ele>
        <time>2013-04-11T09:48:27Z</time>
      </trkpt>
      <trkpt lat="43.20109" lon="5.50382">
        <ele>70.31</ele>
        <time>2013-04-11T09:48:42Z</time>
      </trkpt>
      <trkpt lat="43.20116" lon="5.50371">
        <ele>72.72</ele>
        <time>2013-04-11T09:48:58Z</time>
      </trkpt>
      <trkpt lat="43.20124" lon="5.50366">
        <ele>73.2</ele>
        <time>2013-04-11T09:49:13Z</time>
      </trkpt>
      <trkpt lat="43.20131" lon="5.50355">
        <ele>75.6</ele>
        <time>2013-04-11T09:49:27Z</time>
      </trkpt>
      <trkpt lat="43.20137" lon="5.5035">
        <ele>77.52</ele>
        <time>2013-04-11T09:49:39Z</time>
      </trkpt>
      <trkpt lat="43.20143" lon="5.50343">
        <ele>80.41</ele>
        <time>2013-04-11T09:49:54Z</time>
      </trkpt>
      <trkpt lat="43.20142" lon="5.50339">
        <ele>81.37</ele>
        <time>2013-04-11T09:50:09Z</time>
      </trkpt>
      <trkpt lat="43.20143" lon="5.50339">
        <ele>84.73</ele>
        <time>2013-04-11T09:50:27Z</time>
      </trkpt>
      <trkpt lat="43.20145" lon="5.50334">
        <ele>81.37</ele>
        <time>2013-04-11T09:50:49Z</time>
      </trkpt>
      <trkpt lat="43.20143" lon="5.50335">
        <ele>82.33</ele>
        <time>2013-04-11T09:51:12Z</time>
      </trkpt>
      <trkpt lat="43.20132" lon="5.50338">
        <ele>80.41</ele>
        <time>2013-04-11T09:51:27Z</time>
      </trkpt>
      <trkpt lat="43.20133" lon="5.50337">
        <ele>80.41</ele>
        <time>2013-04-11T09:51:41Z</time>
      </trkpt>
      <trkpt lat="43.20131" lon="5.50337">
        <ele>80.89</ele>
        <time>2013-04-11T09:52:03Z</time>
      </trkpt>
      <trkpt lat="43.20128" lon="5.50335">
        <ele>82.33</ele>
        <time>2013-04-11T09:52:24Z</time>
      </trkpt>
      <trkpt lat="43.20129" lon="5.50329">
        <ele>82.33</ele>
        <time>2013-04-11T09:52:38Z</time>
      </trkpt>
      <trkpt lat="43.20125" lon="5.50324">
        <ele>83.77</ele>
        <time>2013-04-11T09:52:50Z</time>
      </trkpt>
      <trkpt lat="43.20125" lon="5.50327">
        <ele>82.33</ele>
        <time>2013-04-11T09:53:03Z</time>
      </trkpt>
      <trkpt lat="43.20125" lon="5.50326">
        <ele>82.33</ele>
        <time>2013-04-11T09:53:10Z</time>
      </trkpt>
      <trkpt lat="43.20126" lon="5.50314">
        <ele>84.25</ele>
        <time>2013-04-11T09:53:23Z</time>
      </trkpt>
      <trkpt lat="43.20126" lon="5.50312">
        <ele>83.29</ele>
        <time>2013-04-11T09:53:32Z</time>
      </trkpt>
      <trkpt lat="43.20135" lon="5.50307">
        <ele>80.41</ele>
        <time>2013-04-11T09:53:47Z</time>
      </trkpt>
      <trkpt lat="43.20135" lon="5.50307">
        <ele>80.89</ele>
        <time>2013-04-11T09:53:48Z</time>
      </trkpt>
      <trkpt lat="43.20136" lon="5.50309">
        <ele>81.37</ele>
        <time>2013-04-11T09:53:50Z</time>
      </trkpt>
      <trkpt lat="43.20136" lon="5.50312">
        <ele>81.37</ele>
        <time>2013-04-11T09:53:52Z</time>
      </trkpt>
      <trkpt lat="43.20139" lon="5.50315">
        <ele>82.81</ele>
        <time>2013-04-11T09:54:06Z</time>
      </trkpt>
      <trkpt lat="43.20143" lon="5.50315">
        <ele>82.81</ele>
        <time>2013-04-11T09:54:20Z</time>
      </trkpt>
      <trkpt lat="43.20146" lon="5.50308">
        <ele>85.69</ele>
        <time>2013-04-11T09:54:35Z</time>
      </trkpt>
      <trkpt lat="43.2015" lon="5.50296">
        <ele>88.1</ele>
        <time>2013-04-11T09:54:51Z</time>
      </trkpt>
      <trkpt lat="43.2015" lon="5.50292">
        <ele>88.58</ele>
        <time>2013-04-11T09:54:56Z</time>
      </trkpt>
      <trkpt lat="43.2015" lon="5.50285">
        <ele>86.66</ele>
        <time>2013-04-11T09:55:14Z</time>
      </trkpt>
      <trkpt lat="43.20153" lon="5.50281">
        <ele>87.14</ele>
        <time>2013-04-11T09:55:34Z</time>
      </trkpt>
      <trkpt lat="43.20157" lon="5.50271">
        <ele>88.58</ele>
        <time>2013-04-11T09:55:49Z</time>
      </trkpt>
      <trkpt lat="43.20162" lon="5.50266">
        <ele>87.14</ele>
        <time>2013-04-11T09:56:03Z</time>
      </trkpt>
      <trkpt lat="43.20168" lon="5.50254">
        <ele>90.98</ele>
        <time>2013-04-11T09:56:18Z</time>
      </trkpt>
      <trkpt lat="43.20171" lon="5.50243">
        <ele>92.9</ele>
        <time>2013-04-11T09:56:35Z</time>
      </trkpt>
      <trkpt lat="43.20177" lon="5.50235">
        <ele>92.9</ele>
        <time>2013-04-11T09:56:50Z</time>
      </trkpt>
      <trkpt lat="43.20183" lon="5.50227">
        <ele>94.83</ele>
        <time>2013-04-11T09:57:05Z</time>
      </trkpt>
      <trkpt lat="43.2019" lon="5.50219">
        <ele>96.27</ele>
        <time>2013-04-11T09:57:20Z</time>
      </trkpt>
      <trkpt lat="43.20198" lon="5.50211">
        <ele>97.71</ele>
        <time>2013-04-11T09:57:34Z</time>
      </trkpt>
      <trkpt lat="43.20202" lon="5.50197">
        <ele>99.15</ele>
        <time>2013-04-11T09:57:48Z</time>
      </trkpt>
      <trkpt lat="43.20204" lon="5.50189">
        <ele>102.04</ele>
        <time>2013-04-11T09:58:02Z</time>
      </trkpt>
      <trkpt lat="43.20209" lon="5.50182">
        <ele>103.96</ele>
        <time>2013-04-11T09:58:15Z</time>
      </trkpt>
      <trkpt lat="43.20215" lon="5.5017">
        <ele>103.48</ele>
        <time>2013-04-11T09:58:31Z</time>
      </trkpt>
      <trkpt lat="43.2022" lon="5.50158">
        <ele>104.44</ele>
        <time>2013-04-11T09:58:46Z</time>
      </trkpt>
      <trkpt lat="43.20228" lon="5.50152">
        <ele>104.44</ele>
        <time>2013-04-11T09:58:59Z</time>
      </trkpt>
      <trkpt lat="43.20229" lon="5.50147">
        <ele>105.4</ele>
        <time>2013-04-11T09:59:11Z</time>
      </trkpt>
      <trkpt lat="43.20232" lon="5.50145">
        <ele>106.84</ele>
        <time>2013-04-11T09:59:29Z</time>
      </trkpt>
      <trkpt lat="43.20236" lon="5.50148">
        <ele>109.73</ele>
        <time>2013-04-11T09:59:42Z</time>
      </trkpt>
      <trkpt lat="43.20238" lon="5.50145">
        <ele>111.65</ele>
        <time>2013-04-11T10:00:10Z</time>
      </trkpt>
      <trkpt lat="43.20237" lon="5.5015">
        <ele>114.05</ele>
        <time>2013-04-11T10:00:31Z</time>
      </trkpt>
      <trkpt lat="43.20237" lon="5.50149">
        <ele>116.46</ele>
        <time>2013-04-11T10:00:51Z</time>
      </trkpt>
      <trkpt lat="43.20237" lon="5.5015">
        <ele>116.46</ele>
        <time>2013-04-11T10:01:12Z</time>
      </trkpt>
      <trkpt lat="43.2024" lon="5.50152">
        <ele>116.46</ele>
        <time>2013-04-11T10:01:38Z</time>
      </trkpt>
      <trkpt lat="43.20246" lon="5.5015">
        <ele>118.38</ele>
        <time>2013-04-11T10:01:52Z</time>
      </trkpt>
      <trkpt lat="43.20247" lon="5.50146">
        <ele>119.34</ele>
        <time>2013-04-11T10:02:06Z</time>
      </trkpt>
      <trkpt lat="43.20251" lon="5.50147">
        <ele>118.86</ele>
        <time>2013-04-11T10:02:19Z</time>
      </trkpt>
      <trkpt lat="43.20252" lon="5.50154">
        <ele>118.86</ele>
        <time>2013-04-11T10:02:34Z</time>
      </trkpt>
      <trkpt lat="43.20262" lon="5.50149">
        <ele>120.3</ele>
        <time>2013-04-11T10:02:48Z</time>
      </trkpt>
      <trkpt lat="43.20273" lon="5.50149">
        <ele>122.71</ele>
        <time>2013-04-11T10:03:03Z</time>
      </trkpt>
      <trkpt lat="43.20284" lon="5.50144">
        <ele>123.67</ele>
        <time>2013-04-11T10:03:16Z</time>
      </trkpt>
      <trkpt lat="43.20295" lon="5.50139">
        <ele>123.19</ele>
        <time>2013-04-11T10:03:30Z</time>
      </trkpt>
      <trkpt lat="43.20307" lon="5.50134">
        <ele>124.63</ele>
        <time>2013-04-11T10:03:46Z</time>
      </trkpt>
      <trkpt lat="43.20316" lon="5.50128">
        <ele>125.59</ele>
        <time>2013-04-11T10:03:59Z</time>
      </trkpt>
      <trkpt lat="43.20326" lon="5.50128">
        <ele>127.51</ele>
        <time>2013-04-11T10:04:13Z</time>
      </trkpt>
      <trkpt lat="43.20335" lon="5.50122">
        <ele>129.43</ele>
        <time>2013-04-11T10:04:26Z</time>
      </trkpt>
      <trkpt lat="43.20343" lon="5.50115">
        <ele>130.4</ele>
        <time>2013-04-11T10:04:41Z</time>
      </trkpt>
      <trkpt lat="43.20346" lon="5.50103">
        <ele>130.4</ele>
        <time>2013-04-11T10:04:56Z</time>
      </trkpt>
      <trkpt lat="43.20346" lon="5.50094">
        <ele>127.99</ele>
        <time>2013-04-11T10:05:09Z</time>
      </trkpt>
      <trkpt lat="43.20346" lon="5.50083">
        <ele>127.03</ele>
        <time>2013-04-11T10:05:25Z</time>
      </trkpt>
      <trkpt lat="43.20344" lon="5.5007">
        <ele>126.07</ele>
        <time>2013-04-11T10:05:38Z</time>
      </trkpt>
      <trkpt lat="43.20338" lon="5.50064">
        <ele>124.63</ele>
        <time>2013-04-11T10:05:49Z</time>
      </trkpt>
      <trkpt lat="43.20334" lon="5.50049">
        <ele>125.11</ele>
        <time>2013-04-11T10:06:03Z</time>
      </trkpt>
      <trkpt lat="43.20334" lon="5.50034">
        <ele>127.51</ele>
        <time>2013-04-11T10:06:16Z</time>
      </trkpt>
      <trkpt lat="43.20338" lon="5.50025">
        <ele>128.95</ele>
        <time>2013-04-11T10:06:33Z</time>
      </trkpt>
      <trkpt lat="43.20342" lon="5.50021">
        <ele>128.95</ele>
        <time>2013-04-11T10:06:48Z</time>
      </trkpt>
      <trkpt lat="43.20343" lon="5.5002">
        <ele>128.95</ele>
        <time>2013-04-11T10:07:08Z</time>
      </trkpt>
      <trkpt lat="43.20348" lon="5.50017">
        <ele>131.84</ele>
        <time>2013-04-11T10:07:21Z</time>
      </trkpt>
      <trkpt lat="43.20351" lon="5.50018">
        <ele>130.88</ele>
        <time>2013-04-11T10:07:38Z</time>
      </trkpt>
      <trkpt lat="43.20351" lon="5.50016">
        <ele>131.36</ele>
        <time>2013-04-11T10:07:51Z</time>
      </trkpt>
      <trkpt lat="43.20351" lon="5.50011">
        <ele>130.4</ele>
        <time>2013-04-11T10:08:07Z</time>
      </trkpt>
      <trkpt lat="43.20351" lon="5.50015">
        <ele>130.4</ele>
        <time>2013-04-11T10:08:21Z</time>
      </trkpt>
      <trkpt lat="43.20354" lon="5.50021">
        <ele>130.88</ele>
        <time>2013-04-11T10:08:33Z</time>
      </trkpt>
      <trkpt lat="43.20352" lon="5.50021">
        <ele>132.32</ele>
        <time>2013-04-11T10:08:53Z</time>
      </trkpt>
      <trkpt lat="43.20353" lon="5.50021">
        <ele>134.24</ele>
        <time>2013-04-11T10:09:23Z</time>
      </trkpt>
      <trkpt lat="43.20353" lon="5.50021">
        <ele>135.2</ele>
        <time>2013-04-11T10:09:38Z</time>
      </trkpt>
      <trkpt lat="43.20352" lon="5.50021">
        <ele>136.16</ele>
        <time>2013-04-11T11:02:51Z</time>
      </trkpt>
      <trkpt lat="43.20359" lon="5.50027">
        <ele>135.2</ele>
        <time>2013-04-11T11:03:14Z</time>
      </trkpt>
      <trkpt lat="43.20364" lon="5.50028">
        <ele>134.72</ele>
        <time>2013-04-11T11:03:21Z</time>
      </trkpt>
      <trkpt lat="43.2037" lon="5.5003">
        <ele>135.68</ele>
        <time>2013-04-11T11:03:38Z</time>
      </trkpt>
      <trkpt lat="43.20378" lon="5.50031">
        <ele>136.16</ele>
        <time>2013-04-11T11:03:53Z</time>
      </trkpt>
      <trkpt lat="43.20388" lon="5.5003">
        <ele>138.09</ele>
        <time>2013-04-11T11:04:09Z</time>
      </trkpt>
      <trkpt lat="43.20392" lon="5.5002">
        <ele>137.61</ele>
        <time>2013-04-11T11:04:22Z</time>
      </trkpt>
      <trkpt lat="43.20398" lon="5.50011">
        <ele>138.09</ele>
        <time>2013-04-11T11:04:37Z</time>
      </trkpt>
      <trkpt lat="43.20399" lon="5.5001">
        <ele>138.09</ele>
        <time>2013-04-11T11:04:46Z</time>
      </trkpt>
      <trkpt lat="43.20401" lon="5.50002">
        <ele>139.05</ele>
        <time>2013-04-11T11:04:52Z</time>
      </trkpt>
      <trkpt lat="43.20403" lon="5.49999">
        <ele>139.05</ele>
        <time>2013-04-11T11:04:54Z</time>
      </trkpt>
      <trkpt lat="43.20407" lon="5.49982">
        <ele>140.49</ele>
        <time>2013-04-11T11:05:09Z</time>
      </trkpt>
      <trkpt lat="43.20407" lon="5.4998">
        <ele>140.49</ele>
        <time>2013-04-11T11:05:10Z</time>
      </trkpt>
      <trkpt lat="43.20412" lon="5.49963">
        <ele>140.97</ele>
        <time>2013-04-11T11:05:25Z</time>
      </trkpt>
      <trkpt lat="43.20414" lon="5.4996">
        <ele>140.97</ele>
        <time>2013-04-11T11:05:28Z</time>
      </trkpt>
      <trkpt lat="43.20427" lon="5.49943">
        <ele>140.97</ele>
        <time>2013-04-11T11:05:49Z</time>
      </trkpt>
      <trkpt lat="43.20432" lon="5.49925">
        <ele>142.41</ele>
        <time>2013-04-11T11:06:05Z</time>
      </trkpt>
      <trkpt lat="43.20433" lon="5.49916">
        <ele>143.37</ele>
        <time>2013-04-11T11:06:12Z</time>
      </trkpt>
      <trkpt lat="43.20433" lon="5.49894">
        <ele>146.26</ele>
        <time>2013-04-11T11:06:29Z</time>
      </trkpt>
      <trkpt lat="43.20432" lon="5.49876">
        <ele>146.26</ele>
        <time>2013-04-11T11:06:44Z</time>
      </trkpt>
      <trkpt lat="43.20431" lon="5.49858">
        <ele>148.66</ele>
        <time>2013-04-11T11:07:00Z</time>
      </trkpt>
      <trkpt lat="43.2043" lon="5.49841">
        <ele>149.14</ele>
        <time>2013-04-11T11:07:14Z</time>
      </trkpt>
      <trkpt lat="43.20435" lon="5.49831">
        <ele>149.62</ele>
        <time>2013-04-11T11:07:27Z</time>
      </trkpt>
      <trkpt lat="43.20437" lon="5.49822">
        <ele>150.1</ele>
        <time>2013-04-11T11:07:40Z</time>
      </trkpt>
      <trkpt lat="43.20442" lon="5.49821">
        <ele>149.14</ele>
        <time>2013-04-11T11:07:44Z</time>
      </trkpt>
      <trkpt lat="43.20442" lon="5.49814">
        <ele>149.14</ele>
        <time>2013-04-11T11:08:00Z</time>
      </trkpt>
      <trkpt lat="43.20446" lon="5.49813">
        <ele>148.18</ele>
        <time>2013-04-11T11:08:07Z</time>
      </trkpt>
      <trkpt lat="43.2045" lon="5.49806">
        <ele>149.14</ele>
        <time>2013-04-11T11:08:20Z</time>
      </trkpt>
      <trkpt lat="43.20452" lon="5.49806">
        <ele>150.58</ele>
        <time>2013-04-11T11:08:37Z</time>
      </trkpt>
      <trkpt lat="43.20456" lon="5.4981">
        <ele>149.14</ele>
        <time>2013-04-11T11:08:52Z</time>
      </trkpt>
      <trkpt lat="43.2046" lon="5.4981">
        <ele>148.66</ele>
        <time>2013-04-11T11:08:57Z</time>
      </trkpt>
      <trkpt lat="43.20462" lon="5.49813">
        <ele>148.66</ele>
        <time>2013-04-11T11:09:00Z</time>
      </trkpt>
      <trkpt lat="43.20467" lon="5.49823">
        <ele>146.74</ele>
        <time>2013-04-11T11:09:13Z</time>
      </trkpt>
      <trkpt lat="43.20471" lon="5.49837">
        <ele>143.37</ele>
        <time>2013-04-11T11:09:29Z</time>
      </trkpt>
      <trkpt lat="43.20471" lon="5.49846">
        <ele>141.93</ele>
        <time>2013-04-11T11:09:42Z</time>
      </trkpt>
      <trkpt lat="43.20467" lon="5.49859">
        <ele>141.45</ele>
        <time>2013-04-11T11:09:55Z</time>
      </trkpt>
      <trkpt lat="43.20461" lon="5.49871">
        <ele>140.97</ele>
        <time>2013-04-11T11:10:08Z</time>
      </trkpt>
      <trkpt lat="43.2045" lon="5.49875">
        <ele>142.41</ele>
        <time>2013-04-11T11:10:20Z</time>
      </trkpt>
      <trkpt lat="43.20442" lon="5.49887">
        <ele>140.01</ele>
        <time>2013-04-11T11:10:35Z</time>
      </trkpt>
      <trkpt lat="43.20442" lon="5.49908">
        <ele>140.01</ele>
        <time>2013-04-11T11:10:51Z</time>
      </trkpt>
      <trkpt lat="43.20441" lon="5.49927">
        <ele>138.57</ele>
        <time>2013-04-11T11:11:06Z</time>
      </trkpt>
      <trkpt lat="43.20442" lon="5.49947">
        <ele>138.09</ele>
        <time>2013-04-11T11:11:21Z</time>
      </trkpt>
      <trkpt lat="43.20441" lon="5.49966">
        <ele>138.09</ele>
        <time>2013-04-11T11:11:36Z</time>
      </trkpt>
      <trkpt lat="43.20448" lon="5.49979">
        <ele>137.61</ele>
        <time>2013-04-11T11:11:50Z</time>
      </trkpt>
      <trkpt lat="43.20456" lon="5.49991">
        <ele>139.05</ele>
        <time>2013-04-11T11:12:03Z</time>
      </trkpt>
      <trkpt lat="43.20466" lon="5.50007">
        <ele>140.49</ele>
        <time>2013-04-11T11:12:19Z</time>
      </trkpt>
      <trkpt lat="43.20477" lon="5.5002">
        <ele>142.89</ele>
        <time>2013-04-11T11:12:33Z</time>
      </trkpt>
      <trkpt lat="43.20484" lon="5.50036">
        <ele>142.89</ele>
        <time>2013-04-11T11:12:46Z</time>
      </trkpt>
      <trkpt lat="43.2049" lon="5.50052">
        <ele>143.37</ele>
        <time>2013-04-11T11:12:59Z</time>
      </trkpt>
      <trkpt lat="43.20495" lon="5.50072">
        <ele>142.89</ele>
        <time>2013-04-11T11:13:13Z</time>
      </trkpt>
      <trkpt lat="43.20497" lon="5.50095">
        <ele>143.85</ele>
        <time>2013-04-11T11:13:29Z</time>
      </trkpt>
      <trkpt lat="43.20499" lon="5.50115">
        <ele>143.85</ele>
        <time>2013-04-11T11:13:44Z</time>
      </trkpt>
      <trkpt lat="43.20504" lon="5.50135">
        <ele>144.82</ele>
        <time>2013-04-11T11:13:59Z</time>
      </trkpt>
      <trkpt lat="43.20511" lon="5.50146">
        <ele>146.74</ele>
        <time>2013-04-11T11:14:13Z</time>
      </trkpt>
      <trkpt lat="43.20521" lon="5.50156">
        <ele>149.14</ele>
        <time>2013-04-11T11:14:28Z</time>
      </trkpt>
      <trkpt lat="43.20533" lon="5.50167">
        <ele>148.66</ele>
        <time>2013-04-11T11:14:42Z</time>
      </trkpt>
      <trkpt lat="43.20543" lon="5.50175">
        <ele>148.18</ele>
        <time>2013-04-11T11:14:56Z</time>
      </trkpt>
      <trkpt lat="43.20554" lon="5.50181">
        <ele>146.74</ele>
        <time>2013-04-11T11:15:13Z</time>
      </trkpt>
      <trkpt lat="43.20562" lon="5.50186">
        <ele>148.18</ele>
        <time>2013-04-11T11:15:28Z</time>
      </trkpt>
      <trkpt lat="43.20571" lon="5.50191">
        <ele>145.78</ele>
        <time>2013-04-11T11:15:42Z</time>
      </trkpt>
      <trkpt lat="43.2058" lon="5.50198">
        <ele>142.41</ele>
        <time>2013-04-11T11:15:56Z</time>
      </trkpt>
      <trkpt lat="43.20589" lon="5.50198">
        <ele>138.57</ele>
        <time>2013-04-11T11:16:11Z</time>
      </trkpt>
      <trkpt lat="43.20597" lon="5.50201">
        <ele>137.61</ele>
        <time>2013-04-11T11:16:25Z</time>
      </trkpt>
      <trkpt lat="43.20607" lon="5.50205">
        <ele>137.13</ele>
        <time>2013-04-11T11:16:40Z</time>
      </trkpt>
      <trkpt lat="43.20608" lon="5.50205">
        <ele>136.64</ele>
        <time>2013-04-11T11:16:41Z</time>
      </trkpt>
      <trkpt lat="43.20623" lon="5.50197">
        <ele>134.24</ele>
        <time>2013-04-11T11:17:01Z</time>
      </trkpt>
      <trkpt lat="43.2063" lon="5.50196">
        <ele>132.8</ele>
        <time>2013-04-11T11:17:16Z</time>
      </trkpt>
      <trkpt lat="43.20633" lon="5.5019">
        <ele>130.88</ele>
        <time>2013-04-11T11:17:40Z</time>
      </trkpt>
      <trkpt lat="43.20633" lon="5.50188">
        <ele>130.88</ele>
        <time>2013-04-11T11:17:42Z</time>
      </trkpt>
      <trkpt lat="43.20641" lon="5.50171">
        <ele>131.36</ele>
        <time>2013-04-11T11:18:00Z</time>
      </trkpt>
      <trkpt lat="43.20641" lon="5.50164">
        <ele>132.32</ele>
        <time>2013-04-11T11:18:14Z</time>
      </trkpt>
      <trkpt lat="43.20641" lon="5.50157">
        <ele>130.4</ele>
        <time>2013-04-11T11:18:30Z</time>
      </trkpt>
      <trkpt lat="43.20646" lon="5.50147">
        <ele>129.92</ele>
        <time>2013-04-11T11:18:45Z</time>
      </trkpt>
      <trkpt lat="43.20654" lon="5.50139">
        <ele>129.43</ele>
        <time>2013-04-11T11:19:01Z</time>
      </trkpt>
      <trkpt lat="43.20659" lon="5.50138">
        <ele>126.55</ele>
        <time>2013-04-11T11:19:15Z</time>
      </trkpt>
      <trkpt lat="43.20663" lon="5.5014">
        <ele>124.15</ele>
        <time>2013-04-11T11:19:28Z</time>
      </trkpt>
      <trkpt lat="43.20667" lon="5.50142">
        <ele>122.22</ele>
        <time>2013-04-11T11:19:41Z</time>
      </trkpt>
      <trkpt lat="43.20667" lon="5.5014">
        <ele>121.26</ele>
        <time>2013-04-11T11:19:52Z</time>
      </trkpt>
      <trkpt lat="43.20667" lon="5.50139">
        <ele>119.34</ele>
        <time>2013-04-11T11:20:02Z</time>
      </trkpt>
      <trkpt lat="43.20666" lon="5.50137">
        <ele>117.42</ele>
        <time>2013-04-11T11:20:15Z</time>
      </trkpt>
      <trkpt lat="43.20667" lon="5.50135">
        <ele>116.46</ele>
        <time>2013-04-11T11:20:28Z</time>
      </trkpt>
      <trkpt lat="43.20671" lon="5.50135">
        <ele>114.53</ele>
        <time>2013-04-11T11:20:47Z</time>
      </trkpt>
      <trkpt lat="43.20671" lon="5.5013">
        <ele>112.61</ele>
        <time>2013-04-11T11:21:05Z</time>
      </trkpt>
      <trkpt lat="43.2067" lon="5.50124">
        <ele>113.09</ele>
        <time>2013-04-11T11:21:19Z</time>
      </trkpt>
      <trkpt lat="43.20667" lon="5.50126">
        <ele>109.73</ele>
        <time>2013-04-11T11:21:33Z</time>
      </trkpt>
      <trkpt lat="43.20665" lon="5.50123">
        <ele>107.32</ele>
        <time>2013-04-11T11:21:48Z</time>
      </trkpt>
      <trkpt lat="43.20663" lon="5.5012">
        <ele>106.36</ele>
        <time>2013-04-11T11:22:05Z</time>
      </trkpt>
      <trkpt lat="43.20662" lon="5.50114">
        <ele>105.88</ele>
        <time>2013-04-11T11:22:20Z</time>
      </trkpt>
      <trkpt lat="43.20662" lon="5.50114">
        <ele>105.88</ele>
        <time>2013-04-11T11:22:21Z</time>
      </trkpt>
      <trkpt lat="43.20666" lon="5.50109">
        <ele>102.52</ele>
        <time>2013-04-11T11:22:32Z</time>
      </trkpt>
      <trkpt lat="43.2067" lon="5.50101">
        <ele>103</ele>
        <time>2013-04-11T11:22:44Z</time>
      </trkpt>
      <trkpt lat="43.20675" lon="5.50096">
        <ele>102.04</ele>
        <time>2013-04-11T11:22:59Z</time>
      </trkpt>
      <trkpt lat="43.2068" lon="5.50093">
        <ele>97.71</ele>
        <time>2013-04-11T11:23:14Z</time>
      </trkpt>
      <trkpt lat="43.20679" lon="5.50089">
        <ele>94.35</ele>
        <time>2013-04-11T11:23:29Z</time>
      </trkpt>
      <trkpt lat="43.20683" lon="5.5009">
        <ele>93.39</ele>
        <time>2013-04-11T11:23:45Z</time>
      </trkpt>
      <trkpt lat="43.20683" lon="5.50085">
        <ele>93.87</ele>
        <time>2013-04-11T11:24:03Z</time>
      </trkpt>
      <trkpt lat="43.20685" lon="5.50081">
        <ele>93.39</ele>
        <time>2013-04-11T11:24:19Z</time>
      </trkpt>
      <trkpt lat="43.20686" lon="5.5008">
        <ele>93.39</ele>
        <time>2013-04-11T11:24:40Z</time>
      </trkpt>
      <trkpt lat="43.20688" lon="5.50077">
        <ele>91.94</ele>
        <time>2013-04-11T11:24:59Z</time>
      </trkpt>
      <trkpt lat="43.20687" lon="5.50077">
        <ele>92.42</ele>
        <time>2013-04-11T11:25:11Z</time>
      </trkpt>
      <trkpt lat="43.20685" lon="5.50078">
        <ele>96.27</ele>
        <time>2013-04-11T11:25:26Z</time>
      </trkpt>
      <trkpt lat="43.20686" lon="5.50076">
        <ele>94.35</ele>
        <time>2013-04-11T11:25:39Z</time>
      </trkpt>
      <trkpt lat="43.2069" lon="5.50074">
        <ele>94.83</ele>
        <time>2013-04-11T11:26:10Z</time>
      </trkpt>
      <trkpt lat="43.20691" lon="5.50071">
        <ele>96.75</ele>
        <time>2013-04-11T11:26:25Z</time>
      </trkpt>
      <trkpt lat="43.20689" lon="5.50066">
        <ele>94.35</ele>
        <time>2013-04-11T11:26:41Z</time>
      </trkpt>
      <trkpt lat="43.20688" lon="5.50067">
        <ele>91.46</ele>
        <time>2013-04-11T11:26:57Z</time>
      </trkpt>
      <trkpt lat="43.20693" lon="5.50067">
        <ele>88.58</ele>
        <time>2013-04-11T11:27:13Z</time>
      </trkpt>
      <trkpt lat="43.20691" lon="5.50064">
        <ele>88.58</ele>
        <time>2013-04-11T11:27:33Z</time>
      </trkpt>
      <trkpt lat="43.2069" lon="5.50062">
        <ele>87.14</ele>
        <time>2013-04-11T11:27:47Z</time>
      </trkpt>
      <trkpt lat="43.2069" lon="5.50059">
        <ele>82.33</ele>
        <time>2013-04-11T11:27:59Z</time>
      </trkpt>
      <trkpt lat="43.20688" lon="5.50063">
        <ele>79.45</ele>
        <time>2013-04-11T11:28:11Z</time>
      </trkpt>
      <trkpt lat="43.20683" lon="5.50064">
        <ele>77.04</ele>
        <time>2013-04-11T11:28:26Z</time>
      </trkpt>
      <trkpt lat="43.20678" lon="5.50055">
        <ele>69.35</ele>
        <time>2013-04-11T11:28:39Z</time>
      </trkpt>
      <trkpt lat="43.20673" lon="5.50053">
        <ele>63.58</ele>
        <time>2013-04-11T11:28:54Z</time>
      </trkpt>
      <trkpt lat="43.20672" lon="5.50053">
        <ele>61.66</ele>
        <time>2013-04-11T11:29:10Z</time>
      </trkpt>
      <trkpt lat="43.20667" lon="5.50047">
        <ele>59.26</ele>
        <time>2013-04-11T11:29:25Z</time>
      </trkpt>
      <trkpt lat="43.20664" lon="5.50039">
        <ele>57.34</ele>
        <time>2013-04-11T11:29:39Z</time>
      </trkpt>
      <trkpt lat="43.2066" lon="5.50036">
        <ele>55.89</ele>
        <time>2013-04-11T11:29:52Z</time>
      </trkpt>
      <trkpt lat="43.20657" lon="5.50027">
        <ele>53.97</ele>
        <time>2013-04-11T11:30:08Z</time>
      </trkpt>
      <trkpt lat="43.20654" lon="5.50022">
        <ele>46.76</ele>
        <time>2013-04-11T11:30:23Z</time>
      </trkpt>
      <trkpt lat="43.20651" lon="5.50016">
        <ele>41.95</ele>
        <time>2013-04-11T11:30:38Z</time>
      </trkpt>
      <trkpt lat="43.20648" lon="5.50016">
        <ele>42.44</ele>
        <time>2013-04-11T11:30:49Z</time>
      </trkpt>
      <trkpt lat="43.20645" lon="5.50009">
        <ele>40.51</ele>
        <time>2013-04-11T11:31:02Z</time>
      </trkpt>
      <trkpt lat="43.20639" lon="5.50007">
        <ele>35.23</ele>
        <time>2013-04-11T11:31:19Z</time>
      </trkpt>
      <trkpt lat="43.20634" lon="5.50002">
        <ele>34.26</ele>
        <time>2013-04-11T11:31:32Z</time>
      </trkpt>
      <trkpt lat="43.20631" lon="5.49994">
        <ele>32.82</ele>
        <time>2013-04-11T11:31:47Z</time>
      </trkpt>
      <trkpt lat="43.20633" lon="5.49987">
        <ele>29.94</ele>
        <time>2013-04-11T11:32:00Z</time>
      </trkpt>
      <trkpt lat="43.20632" lon="5.49976">
        <ele>27.05</ele>
        <time>2013-04-11T11:32:15Z</time>
      </trkpt>
      <trkpt lat="43.20627" lon="5.49964">
        <ele>23.21</ele>
        <time>2013-04-11T11:32:31Z</time>
      </trkpt>
      <trkpt lat="43.20622" lon="5.49948">
        <ele>17.44</ele>
        <time>2013-04-11T11:32:46Z</time>
      </trkpt>
      <trkpt lat="43.20618" lon="5.4994">
        <ele>18.4</ele>
        <time>2013-04-11T11:32:58Z</time>
      </trkpt>
      <trkpt lat="43.20614" lon="5.49928">
        <ele>20.81</ele>
        <time>2013-04-11T11:33:11Z</time>
      </trkpt>
      <trkpt lat="43.20617" lon="5.49919">
        <ele>24.65</ele>
        <time>2013-04-11T11:33:23Z</time>
      </trkpt>
      <trkpt lat="43.20617" lon="5.49912">
        <ele>27.05</ele>
        <time>2013-04-11T11:33:39Z</time>
      </trkpt>
      <trkpt lat="43.20621" lon="5.49913">
        <ele>28.5</ele>
        <time>2013-04-11T11:33:57Z</time>
      </trkpt>
      <trkpt lat="43.20619" lon="5.49913">
        <ele>25.61</ele>
        <time>2013-04-11T11:34:19Z</time>
      </trkpt>
      <trkpt lat="43.20616" lon="5.49913">
        <ele>26.57</ele>
        <time>2013-04-11T11:34:40Z</time>
      </trkpt>
      <trkpt lat="43.20616" lon="5.49912">
        <ele>26.57</ele>
        <time>2013-04-11T11:34:57Z</time>
      </trkpt>
      <trkpt lat="43.20618" lon="5.49911">
        <ele>27.53</ele>
        <time>2013-04-11T11:35:15Z</time>
      </trkpt>
      <trkpt lat="43.20618" lon="5.49914">
        <ele>28.5</ele>
        <time>2013-04-11T11:35:33Z</time>
      </trkpt>
      <trkpt lat="43.20617" lon="5.49912">
        <ele>25.61</ele>
        <time>2013-04-11T11:35:55Z</time>
      </trkpt>
      <trkpt lat="43.20614" lon="5.49912">
        <ele>27.05</ele>
        <time>2013-04-11T11:36:11Z</time>
      </trkpt>
      <trkpt lat="43.20614" lon="5.49911">
        <ele>27.53</ele>
        <time>2013-04-11T11:36:34Z</time>
      </trkpt>
      <trkpt lat="43.20616" lon="5.49912">
        <ele>24.17</ele>
        <time>2013-04-11T11:36:47Z</time>
      </trkpt>
      <trkpt lat="43.20616" lon="5.49909">
        <ele>29.46</ele>
        <time>2013-04-11T11:37:11Z</time>
      </trkpt>
      <trkpt lat="43.20619" lon="5.49911">
        <ele>29.46</ele>
        <time>2013-04-11T11:37:40Z</time>
      </trkpt>
      <trkpt lat="43.20625" lon="5.49915">
        <ele>29.46</ele>
        <time>2013-04-11T11:37:53Z</time>
      </trkpt>
      <trkpt lat="43.20634" lon="5.49915">
        <ele>28.5</ele>
        <time>2013-04-11T11:38:08Z</time>
      </trkpt>
      <trkpt lat="43.20642" lon="5.49911">
        <ele>28.98</ele>
        <time>2013-04-11T11:38:18Z</time>
      </trkpt>
      <trkpt lat="43.20656" lon="5.499">
        <ele>31.38</ele>
        <time>2013-04-11T11:38:33Z</time>
      </trkpt>
      <trkpt lat="43.2067" lon="5.49883">
        <ele>32.82</ele>
        <time>2013-04-11T11:38:51Z</time>
      </trkpt>
      <trkpt lat="43.20681" lon="5.49865">
        <ele>32.34</ele>
        <time>2013-04-11T11:39:07Z</time>
      </trkpt>
      <trkpt lat="43.20684" lon="5.49863">
        <ele>33.3</ele>
        <time>2013-04-11T11:39:12Z</time>
      </trkpt>
      <trkpt lat="43.20696" lon="5.49855">
        <ele>37.63</ele>
        <time>2013-04-11T11:39:26Z</time>
      </trkpt>
      <trkpt lat="43.2071" lon="5.49847">
        <ele>37.63</ele>
        <time>2013-04-11T11:39:43Z</time>
      </trkpt>
      <trkpt lat="43.2072" lon="5.49838">
        <ele>35.23</ele>
        <time>2013-04-11T11:39:56Z</time>
      </trkpt>
      <trkpt lat="43.20722" lon="5.49836">
        <ele>34.74</ele>
        <time>2013-04-11T11:39:58Z</time>
      </trkpt>
      <trkpt lat="43.20733" lon="5.49826">
        <ele>32.34</ele>
        <time>2013-04-11T11:40:12Z</time>
      </trkpt>
      <trkpt lat="43.2074" lon="5.49822">
        <ele>31.38</ele>
        <time>2013-04-11T11:40:20Z</time>
      </trkpt>
      <trkpt lat="43.20742" lon="5.4982">
        <ele>30.9</ele>
        <time>2013-04-11T11:40:22Z</time>
      </trkpt>
      <trkpt lat="43.20753" lon="5.49808">
        <ele>34.26</ele>
        <time>2013-04-11T11:40:38Z</time>
      </trkpt>
      <trkpt lat="43.20765" lon="5.49795">
        <ele>40.51</ele>
        <time>2013-04-11T11:40:55Z</time>
      </trkpt>
      <trkpt lat="43.20774" lon="5.49784">
        <ele>46.28</ele>
        <time>2013-04-11T11:41:08Z</time>
      </trkpt>
      <trkpt lat="43.20786" lon="5.49771">
        <ele>50.61</ele>
        <time>2013-04-11T11:41:23Z</time>
      </trkpt>
      <trkpt lat="43.2079" lon="5.49766">
        <ele>52.05</ele>
        <time>2013-04-11T11:41:28Z</time>
      </trkpt>
      <trkpt lat="43.20812" lon="5.49752">
        <ele>53.01</ele>
        <time>2013-04-11T11:41:49Z</time>
      </trkpt>
      <trkpt lat="43.20829" lon="5.49742">
        <ele>53.49</ele>
        <time>2013-04-11T11:42:06Z</time>
      </trkpt>
      <trkpt lat="43.20843" lon="5.49733">
        <ele>53.01</ele>
        <time>2013-04-11T11:42:21Z</time>
      </trkpt>
      <trkpt lat="43.20857" lon="5.49725">
        <ele>52.05</ele>
        <time>2013-04-11T11:42:37Z</time>
      </trkpt>
      <trkpt lat="43.20871" lon="5.49718">
        <ele>52.05</ele>
        <time>2013-04-11T11:42:52Z</time>
      </trkpt>
      <trkpt lat="43.20887" lon="5.4971">
        <ele>51.57</ele>
        <time>2013-04-11T11:43:09Z</time>
      </trkpt>
      <trkpt lat="43.20898" lon="5.49707">
        <ele>51.57</ele>
        <time>2013-04-11T11:43:18Z</time>
      </trkpt>
      <trkpt lat="43.20905" lon="5.49706">
        <ele>53.49</ele>
        <time>2013-04-11T11:43:24Z</time>
      </trkpt>
      <trkpt lat="43.20919" lon="5.49704">
        <ele>56.37</ele>
        <time>2013-04-11T11:43:39Z</time>
      </trkpt>
      <trkpt lat="43.20934" lon="5.497">
        <ele>56.86</ele>
        <time>2013-04-11T11:43:54Z</time>
      </trkpt>
      <trkpt lat="43.2095" lon="5.49695">
        <ele>54.45</ele>
        <time>2013-04-11T11:44:09Z</time>
      </trkpt>
      <trkpt lat="43.20963" lon="5.49695">
        <ele>49.16</ele>
        <time>2013-04-11T11:44:21Z</time>
      </trkpt>
      <trkpt lat="43.20985" lon="5.497">
        <ele>41.95</ele>
        <time>2013-04-11T11:44:38Z</time>
      </trkpt>
      <trkpt lat="43.20992" lon="5.497">
        <ele>44.36</ele>
        <time>2013-04-11T11:44:44Z</time>
      </trkpt>
      <trkpt lat="43.21002" lon="5.49694">
        <ele>45.32</ele>
        <time>2013-04-11T11:44:54Z</time>
      </trkpt>
      <trkpt lat="43.21011" lon="5.49681">
        <ele>53.01</ele>
        <time>2013-04-11T11:45:08Z</time>
      </trkpt>
      <trkpt lat="43.21025" lon="5.49671">
        <ele>56.37</ele>
        <time>2013-04-11T11:45:24Z</time>
      </trkpt>
      <trkpt lat="43.21035" lon="5.49664">
        <ele>60.7</ele>
        <time>2013-04-11T11:45:36Z</time>
      </trkpt>
      <trkpt lat="43.21047" lon="5.49669">
        <ele>60.22</ele>
        <time>2013-04-11T11:45:51Z</time>
      </trkpt>
      <trkpt lat="43.2106" lon="5.4968">
        <ele>59.26</ele>
        <time>2013-04-11T11:46:06Z</time>
      </trkpt>
      <trkpt lat="43.21079" lon="5.4969">
        <ele>63.1</ele>
        <time>2013-04-11T11:46:22Z</time>
      </trkpt>
      <trkpt lat="43.21087" lon="5.49697">
        <ele>64.55</ele>
        <time>2013-04-11T11:46:32Z</time>
      </trkpt>
      <trkpt lat="43.2109" lon="5.497">
        <ele>64.55</ele>
        <time>2013-04-11T11:46:35Z</time>
      </trkpt>
      <trkpt lat="43.21092" lon="5.49703">
        <ele>64.55</ele>
        <time>2013-04-11T11:46:38Z</time>
      </trkpt>
      <trkpt lat="43.21105" lon="5.49716">
        <ele>66.95</ele>
        <time>2013-04-11T11:46:54Z</time>
      </trkpt>
      <trkpt lat="43.2111" lon="5.49719">
        <ele>66.95</ele>
        <time>2013-04-11T11:46:59Z</time>
      </trkpt>
      <trkpt lat="43.21127" lon="5.49718">
        <ele>67.43</ele>
        <time>2013-04-11T11:47:17Z</time>
      </trkpt>
      <trkpt lat="43.21135" lon="5.49712">
        <ele>66.95</ele>
        <time>2013-04-11T11:47:34Z</time>
      </trkpt>
      <trkpt lat="43.21136" lon="5.49713">
        <ele>66.47</ele>
        <time>2013-04-11T11:47:55Z</time>
      </trkpt>
      <trkpt lat="43.2114" lon="5.49713">
        <ele>65.99</ele>
        <time>2013-04-11T11:48:16Z</time>
      </trkpt>
      <trkpt lat="43.21139" lon="5.49711">
        <ele>67.91</ele>
        <time>2013-04-11T11:48:36Z</time>
      </trkpt>
      <trkpt lat="43.21142" lon="5.49711">
        <ele>72.24</ele>
        <time>2013-04-11T11:48:58Z</time>
      </trkpt>
      <trkpt lat="43.21144" lon="5.49713">
        <ele>72.72</ele>
        <time>2013-04-11T11:49:11Z</time>
      </trkpt>
      <trkpt lat="43.21148" lon="5.49712">
        <ele>74.16</ele>
        <time>2013-04-11T11:49:27Z</time>
      </trkpt>
      <trkpt lat="43.21153" lon="5.49715">
        <ele>74.16</ele>
        <time>2013-04-11T11:49:44Z</time>
      </trkpt>
      <trkpt lat="43.21161" lon="5.49722">
        <ele>72.24</ele>
        <time>2013-04-11T11:49:58Z</time>
      </trkpt>
      <trkpt lat="43.2117" lon="5.49731">
        <ele>70.79</ele>
        <time>2013-04-11T11:50:12Z</time>
      </trkpt>
      <trkpt lat="43.21178" lon="5.49738">
        <ele>71.76</ele>
        <time>2013-04-11T11:50:27Z</time>
      </trkpt>
      <trkpt lat="43.21178" lon="5.49752">
        <ele>73.2</ele>
        <time>2013-04-11T11:50:43Z</time>
      </trkpt>
      <trkpt lat="43.21172" lon="5.49763">
        <ele>76.56</ele>
        <time>2013-04-11T11:50:58Z</time>
      </trkpt>
      <trkpt lat="43.2117" lon="5.49767">
        <ele>77.52</ele>
        <time>2013-04-11T11:51:04Z</time>
      </trkpt>
      <trkpt lat="43.21158" lon="5.49778">
        <ele>79.45</ele>
        <time>2013-04-11T11:51:19Z</time>
      </trkpt>
      <trkpt lat="43.21149" lon="5.49785">
        <ele>80.41</ele>
        <time>2013-04-11T11:51:29Z</time>
      </trkpt>
      <trkpt lat="43.21145" lon="5.49801">
        <ele>81.85</ele>
        <time>2013-04-11T11:51:43Z</time>
      </trkpt>
      <trkpt lat="43.21145" lon="5.49804">
        <ele>81.85</ele>
        <time>2013-04-11T11:51:46Z</time>
      </trkpt>
      <trkpt lat="43.21144" lon="5.49814">
        <ele>81.37</ele>
        <time>2013-04-11T11:51:58Z</time>
      </trkpt>
      <trkpt lat="43.21145" lon="5.49824">
        <ele>81.37</ele>
        <time>2013-04-11T11:52:05Z</time>
      </trkpt>
      <trkpt lat="43.21145" lon="5.49831">
        <ele>82.33</ele>
        <time>2013-04-11T11:52:19Z</time>
      </trkpt>
      <trkpt lat="43.21145" lon="5.49834">
        <ele>84.25</ele>
        <time>2013-04-11T11:52:37Z</time>
      </trkpt>
      <trkpt lat="43.21143" lon="5.49839">
        <ele>83.77</ele>
        <time>2013-04-11T11:52:50Z</time>
      </trkpt>
      <trkpt lat="43.2114" lon="5.49843">
        <ele>85.21</ele>
        <time>2013-04-11T11:53:03Z</time>
      </trkpt>
      <trkpt lat="43.2114" lon="5.4985">
        <ele>88.1</ele>
        <time>2013-04-11T11:53:18Z</time>
      </trkpt>
      <trkpt lat="43.21139" lon="5.49852">
        <ele>89.06</ele>
        <time>2013-04-11T11:53:34Z</time>
      </trkpt>
      <trkpt lat="43.21138" lon="5.49852">
        <ele>88.1</ele>
        <time>2013-04-11T11:53:56Z</time>
      </trkpt>
      <trkpt lat="43.21139" lon="5.49854">
        <ele>89.06</ele>
        <time>2013-04-11T11:54:13Z</time>
      </trkpt>
      <trkpt lat="43.21137" lon="5.49858">
        <ele>89.54</ele>
        <time>2013-04-11T11:54:29Z</time>
      </trkpt>
      <trkpt lat="43.21137" lon="5.49859">
        <ele>89.54</ele>
        <time>2013-04-11T11:54:45Z</time>
      </trkpt>
      <trkpt lat="43.21131" lon="5.49861">
        <ele>90.02</ele>
        <time>2013-04-11T11:55:09Z</time>
      </trkpt>
      <trkpt lat="43.2113" lon="5.49862">
        <ele>91.94</ele>
        <time>2013-04-11T11:55:26Z</time>
      </trkpt>
      <trkpt lat="43.2113" lon="5.49856">
        <ele>93.39</ele>
        <time>2013-04-11T11:55:41Z</time>
      </trkpt>
      <trkpt lat="43.21127" lon="5.49848">
        <ele>94.35</ele>
        <time>2013-04-11T11:55:54Z</time>
      </trkpt>
      <trkpt lat="43.21127" lon="5.4985">
        <ele>94.83</ele>
        <time>2013-04-11T11:56:11Z</time>
      </trkpt>
      <trkpt lat="43.21126" lon="5.49852">
        <ele>96.27</ele>
        <time>2013-04-11T11:56:30Z</time>
      </trkpt>
      <trkpt lat="43.21125" lon="5.49851">
        <ele>97.23</ele>
        <time>2013-04-11T11:56:53Z</time>
      </trkpt>
      <trkpt lat="43.21121" lon="5.49853">
        <ele>99.63</ele>
        <time>2013-04-11T11:57:10Z</time>
      </trkpt>
      <trkpt lat="43.21121" lon="5.49852">
        <ele>101.56</ele>
        <time>2013-04-11T11:57:26Z</time>
      </trkpt>
      <trkpt lat="43.21121" lon="5.49854">
        <ele>104.44</ele>
        <time>2013-04-11T11:57:45Z</time>
      </trkpt>
      <trkpt lat="43.21123" lon="5.49857">
        <ele>105.4</ele>
        <time>2013-04-11T11:58:00Z</time>
      </trkpt>
      <trkpt lat="43.21122" lon="5.49866">
        <ele>109.73</ele>
        <time>2013-04-11T11:58:13Z</time>
      </trkpt>
      <trkpt lat="43.21124" lon="5.49874">
        <ele>110.69</ele>
        <time>2013-04-11T11:58:27Z</time>
      </trkpt>
      <trkpt lat="43.21126" lon="5.49882">
        <ele>113.09</ele>
        <time>2013-04-11T11:58:41Z</time>
      </trkpt>
      <trkpt lat="43.21128" lon="5.4989">
        <ele>115.01</ele>
        <time>2013-04-11T11:58:55Z</time>
      </trkpt>
      <trkpt lat="43.21133" lon="5.49896">
        <ele>118.38</ele>
        <time>2013-04-11T11:59:11Z</time>
      </trkpt>
      <trkpt lat="43.21137" lon="5.49901">
        <ele>120.3</ele>
        <time>2013-04-11T11:59:27Z</time>
      </trkpt>
      <trkpt lat="43.21135" lon="5.49904">
        <ele>120.78</ele>
        <time>2013-04-11T11:59:41Z</time>
      </trkpt>
      <trkpt lat="43.21131" lon="5.49907">
        <ele>121.26</ele>
        <time>2013-04-11T11:59:57Z</time>
      </trkpt>
      <trkpt lat="43.21132" lon="5.4991">
        <ele>122.71</ele>
        <time>2013-04-11T12:00:12Z</time>
      </trkpt>
      <trkpt lat="43.21133" lon="5.49911">
        <ele>123.67</ele>
        <time>2013-04-11T12:00:29Z</time>
      </trkpt>
      <trkpt lat="43.21133" lon="5.49916">
        <ele>128.47</ele>
        <time>2013-04-11T12:00:44Z</time>
      </trkpt>
      <trkpt lat="43.21136" lon="5.4992">
        <ele>129.43</ele>
        <time>2013-04-11T12:01:02Z</time>
      </trkpt>
      <trkpt lat="43.21134" lon="5.49923">
        <ele>131.84</ele>
        <time>2013-04-11T12:01:20Z</time>
      </trkpt>
      <trkpt lat="43.21131" lon="5.49927">
        <ele>133.28</ele>
        <time>2013-04-11T12:01:35Z</time>
      </trkpt>
      <trkpt lat="43.21128" lon="5.49926">
        <ele>133.28</ele>
        <time>2013-04-11T12:01:51Z</time>
      </trkpt>
      <trkpt lat="43.21128" lon="5.49927">
        <ele>132.8</ele>
        <time>2013-04-11T12:02:05Z</time>
      </trkpt>
      <trkpt lat="43.21129" lon="5.49928">
        <ele>131.36</ele>
        <time>2013-04-11T12:02:29Z</time>
      </trkpt>
      <trkpt lat="43.21129" lon="5.49925">
        <ele>130.88</ele>
        <time>2013-04-11T12:03:07Z</time>
      </trkpt>
      <trkpt lat="43.2113" lon="5.49926">
        <ele>130.4</ele>
        <time>2013-04-11T12:03:46Z</time>
      </trkpt>
      <trkpt lat="43.2113" lon="5.49924">
        <ele>130.88</ele>
        <time>2013-04-11T12:03:56Z</time>
      </trkpt>
      <trkpt lat="43.2113" lon="5.49924">
        <ele>130.88</ele>
        <time>2013-04-11T12:04:14Z</time>
      </trkpt>
      <trkpt lat="43.21128" lon="5.49925">
        <ele>132.8</ele>
        <time>2013-04-11T12:04:38Z</time>
      </trkpt>
      <trkpt lat="43.21129" lon="5.49926">
        <ele>132.8</ele>
        <time>2013-04-11T12:04:57Z</time>
      </trkpt>
      <trkpt lat="43.21133" lon="5.4993">
        <ele>131.36</ele>
        <time>2013-04-11T12:05:15Z</time>
      </trkpt>
      <trkpt lat="43.21138" lon="5.49938">
        <ele>134.24</ele>
        <time>2013-04-11T12:05:29Z</time>
      </trkpt>
      <trkpt lat="43.21136" lon="5.4994">
        <ele>134.72</ele>
        <time>2013-04-11T12:05:42Z</time>
      </trkpt>
      <trkpt lat="43.21131" lon="5.49939">
        <ele>135.68</ele>
        <time>2013-04-11T12:06:00Z</time>
      </trkpt>
      <trkpt lat="43.21119" lon="5.49938">
        <ele>135.68</ele>
        <time>2013-04-11T12:06:15Z</time>
      </trkpt>
      <trkpt lat="43.21111" lon="5.49936">
        <ele>139.53</ele>
        <time>2013-04-11T12:06:31Z</time>
      </trkpt>
      <trkpt lat="43.21104" lon="5.49935">
        <ele>140.97</ele>
        <time>2013-04-11T12:06:45Z</time>
      </trkpt>
      <trkpt lat="43.21096" lon="5.49931">
        <ele>141.93</ele>
        <time>2013-04-11T12:06:59Z</time>
      </trkpt>
      <trkpt lat="43.2109" lon="5.49929">
        <ele>146.74</ele>
        <time>2013-04-11T12:07:13Z</time>
      </trkpt>
      <trkpt lat="43.2109" lon="5.49937">
        <ele>149.14</ele>
        <time>2013-04-11T12:07:27Z</time>
      </trkpt>
      <trkpt lat="43.21092" lon="5.49947">
        <ele>150.58</ele>
        <time>2013-04-11T12:07:42Z</time>
      </trkpt>
      <trkpt lat="43.21091" lon="5.49954">
        <ele>150.58</ele>
        <time>2013-04-11T12:07:57Z</time>
      </trkpt>
      <trkpt lat="43.21084" lon="5.4995">
        <ele>150.58</ele>
        <time>2013-04-11T12:08:09Z</time>
      </trkpt>
      <trkpt lat="43.21079" lon="5.49951">
        <ele>152.03</ele>
        <time>2013-04-11T12:08:25Z</time>
      </trkpt>
      <trkpt lat="43.21075" lon="5.49961">
        <ele>154.91</ele>
        <time>2013-04-11T12:08:38Z</time>
      </trkpt>
      <trkpt lat="43.21074" lon="5.49966">
        <ele>155.87</ele>
        <time>2013-04-11T12:08:53Z</time>
      </trkpt>
      <trkpt lat="43.21074" lon="5.49969">
        <ele>158.27</ele>
        <time>2013-04-11T12:09:23Z</time>
      </trkpt>
      <trkpt lat="43.21073" lon="5.49968">
        <ele>156.83</ele>
        <time>2013-04-11T12:09:43Z</time>
      </trkpt>
      <trkpt lat="43.21074" lon="5.49966">
        <ele>156.35</ele>
        <time>2013-04-11T12:10:07Z</time>
      </trkpt>
      <trkpt lat="43.21071" lon="5.49969">
        <ele>155.87</ele>
        <time>2013-04-11T12:10:32Z</time>
      </trkpt>
      <trkpt lat="43.21071" lon="5.49968">
        <ele>156.83</ele>
        <time>2013-04-11T12:10:56Z</time>
      </trkpt>
      <trkpt lat="43.21068" lon="5.49965">
        <ele>155.87</ele>
        <time>2013-04-11T12:11:14Z</time>
      </trkpt>
      <trkpt lat="43.21061" lon="5.4996">
        <ele>154.91</ele>
        <time>2013-04-11T12:11:27Z</time>
      </trkpt>
      <trkpt lat="43.21058" lon="5.49961">
        <ele>154.43</ele>
        <time>2013-04-11T12:11:30Z</time>
      </trkpt>
      <trkpt lat="43.21055" lon="5.49964">
        <ele>153.95</ele>
        <time>2013-04-11T12:11:34Z</time>
      </trkpt>
      <trkpt lat="43.21052" lon="5.49972">
        <ele>154.43</ele>
        <time>2013-04-11T12:11:40Z</time>
      </trkpt>
      <trkpt lat="43.21037" lon="5.49993">
        <ele>152.51</ele>
        <time>2013-04-11T12:12:00Z</time>
      </trkpt>
      <trkpt lat="43.21022" lon="5.50008">
        <ele>151.06</ele>
        <time>2013-04-11T12:12:18Z</time>
      </trkpt>
      <trkpt lat="43.21021" lon="5.5001">
        <ele>150.58</ele>
        <time>2013-04-11T12:12:20Z</time>
      </trkpt>
      <trkpt lat="43.21004" lon="5.50026">
        <ele>150.1</ele>
        <time>2013-04-11T12:12:39Z</time>
      </trkpt>
      <trkpt lat="43.20986" lon="5.5004">
        <ele>150.1</ele>
        <time>2013-04-11T12:12:58Z</time>
      </trkpt>
      <trkpt lat="43.2097" lon="5.50046">
        <ele>151.06</ele>
        <time>2013-04-11T12:13:13Z</time>
      </trkpt>
      <trkpt lat="43.20965" lon="5.50073">
        <ele>151.06</ele>
        <time>2013-04-11T12:13:32Z</time>
      </trkpt>
      <trkpt lat="43.20965" lon="5.5009">
        <ele>152.51</ele>
        <time>2013-04-11T12:13:44Z</time>
      </trkpt>
      <trkpt lat="43.20971" lon="5.50112">
        <ele>154.91</ele>
        <time>2013-04-11T12:14:02Z</time>
      </trkpt>
      <trkpt lat="43.20972" lon="5.50115">
        <ele>154.91</ele>
        <time>2013-04-11T12:14:04Z</time>
      </trkpt>
      <trkpt lat="43.20975" lon="5.50123">
        <ele>155.39</ele>
        <time>2013-04-11T12:14:11Z</time>
      </trkpt>
      <trkpt lat="43.20981" lon="5.50143">
        <ele>156.35</ele>
        <time>2013-04-11T12:14:27Z</time>
      </trkpt>
      <trkpt lat="43.20987" lon="5.50166">
        <ele>157.79</ele>
        <time>2013-04-11T12:14:46Z</time>
      </trkpt>
      <trkpt lat="43.20988" lon="5.50169">
        <ele>158.27</ele>
        <time>2013-04-11T12:14:48Z</time>
      </trkpt>
      <trkpt lat="43.20996" lon="5.5019">
        <ele>159.24</ele>
        <time>2013-04-11T12:15:04Z</time>
      </trkpt>
      <trkpt lat="43.21001" lon="5.50208">
        <ele>159.72</ele>
        <time>2013-04-11T12:15:19Z</time>
      </trkpt>
      <trkpt lat="43.21009" lon="5.50231">
        <ele>161.16</ele>
        <time>2013-04-11T12:15:37Z</time>
      </trkpt>
      <trkpt lat="43.2101" lon="5.5025">
        <ele>162.12</ele>
        <time>2013-04-11T12:15:50Z</time>
      </trkpt>
      <trkpt lat="43.21012" lon="5.50275">
        <ele>162.12</ele>
        <time>2013-04-11T12:16:08Z</time>
      </trkpt>
      <trkpt lat="43.21017" lon="5.50295">
        <ele>162.6</ele>
        <time>2013-04-11T12:16:23Z</time>
      </trkpt>
      <trkpt lat="43.21024" lon="5.50317">
        <ele>163.08</ele>
        <time>2013-04-11T12:16:39Z</time>
      </trkpt>
      <trkpt lat="43.21032" lon="5.50339">
        <ele>164.04</ele>
        <time>2013-04-11T12:16:57Z</time>
      </trkpt>
      <trkpt lat="43.21037" lon="5.50364">
        <ele>163.56</ele>
        <time>2013-04-11T12:17:15Z</time>
      </trkpt>
      <trkpt lat="43.21041" lon="5.50387">
        <ele>166.93</ele>
        <time>2013-04-11T12:17:32Z</time>
      </trkpt>
      <trkpt lat="43.21048" lon="5.50412">
        <ele>169.33</ele>
        <time>2013-04-11T12:17:52Z</time>
      </trkpt>
      <trkpt lat="43.21055" lon="5.50433">
        <ele>170.29</ele>
        <time>2013-04-11T12:18:09Z</time>
      </trkpt>
      <trkpt lat="43.21065" lon="5.50458">
        <ele>171.73</ele>
        <time>2013-04-11T12:18:28Z</time>
      </trkpt>
      <trkpt lat="43.21078" lon="5.50471">
        <ele>172.21</ele>
        <time>2013-04-11T12:18:44Z</time>
      </trkpt>
      <trkpt lat="43.21091" lon="5.50484">
        <ele>173.17</ele>
        <time>2013-04-11T12:19:00Z</time>
      </trkpt>
      <trkpt lat="43.21104" lon="5.50494">
        <ele>173.66</ele>
        <time>2013-04-11T12:19:16Z</time>
      </trkpt>
      <trkpt lat="43.21117" lon="5.50504">
        <ele>174.14</ele>
        <time>2013-04-11T12:19:33Z</time>
      </trkpt>
      <trkpt lat="43.2112" lon="5.50505">
        <ele>173.66</ele>
        <time>2013-04-11T12:19:36Z</time>
      </trkpt>
      <trkpt lat="43.21139" lon="5.50519">
        <ele>175.58</ele>
        <time>2013-04-11T12:19:56Z</time>
      </trkpt>
      <trkpt lat="43.21155" lon="5.50531">
        <ele>177.02</ele>
        <time>2013-04-11T12:20:15Z</time>
      </trkpt>
      <trkpt lat="43.21171" lon="5.50542">
        <ele>177.98</ele>
        <time>2013-04-11T12:20:32Z</time>
      </trkpt>
      <trkpt lat="43.21187" lon="5.50554">
        <ele>178.46</ele>
        <time>2013-04-11T12:20:50Z</time>
      </trkpt>
      <trkpt lat="43.21202" lon="5.50564">
        <ele>178.94</ele>
        <time>2013-04-11T12:21:08Z</time>
      </trkpt>
      <trkpt lat="43.21218" lon="5.50575">
        <ele>180.38</ele>
        <time>2013-04-11T12:21:25Z</time>
      </trkpt>
      <trkpt lat="43.21224" lon="5.50582">
        <ele>180.87</ele>
        <time>2013-04-11T12:21:32Z</time>
      </trkpt>
      <trkpt lat="43.21238" lon="5.50595">
        <ele>180.87</ele>
        <time>2013-04-11T12:21:49Z</time>
      </trkpt>
      <trkpt lat="43.21254" lon="5.50606">
        <ele>181.83</ele>
        <time>2013-04-11T12:22:06Z</time>
      </trkpt>
      <trkpt lat="43.21271" lon="5.50614">
        <ele>182.79</ele>
        <time>2013-04-11T12:22:23Z</time>
      </trkpt>
      <trkpt lat="43.21287" lon="5.50621">
        <ele>183.75</ele>
        <time>2013-04-11T12:22:40Z</time>
      </trkpt>
      <trkpt lat="43.21306" lon="5.50629">
        <ele>184.71</ele>
        <time>2013-04-11T12:22:58Z</time>
      </trkpt>
      <trkpt lat="43.21317" lon="5.50632">
        <ele>186.15</ele>
        <time>2013-04-11T12:23:09Z</time>
      </trkpt>
      <trkpt lat="43.21334" lon="5.50635">
        <ele>188.56</ele>
        <time>2013-04-11T12:23:26Z</time>
      </trkpt>
      <trkpt lat="43.21351" lon="5.5064">
        <ele>190</ele>
        <time>2013-04-11T12:23:43Z</time>
      </trkpt>
      <trkpt lat="43.21367" lon="5.50647">
        <ele>191.44</ele>
        <time>2013-04-11T12:23:59Z</time>
      </trkpt>
      <trkpt lat="43.21381" lon="5.50653">
        <ele>192.4</ele>
        <time>2013-04-11T12:24:13Z</time>
      </trkpt>
      <trkpt lat="43.21383" lon="5.50655">
        <ele>192.4</ele>
        <time>2013-04-11T12:24:16Z</time>
      </trkpt>
      <trkpt lat="43.21402" lon="5.50666">
        <ele>191.44</ele>
        <time>2013-04-11T12:24:35Z</time>
      </trkpt>
      <trkpt lat="43.21422" lon="5.50678">
        <ele>191.44</ele>
        <time>2013-04-11T12:24:55Z</time>
      </trkpt>
      <trkpt lat="43.21437" lon="5.50693">
        <ele>190.96</ele>
        <time>2013-04-11T12:25:12Z</time>
      </trkpt>
      <trkpt lat="43.21454" lon="5.50709">
        <ele>191.92</ele>
        <time>2013-04-11T12:25:30Z</time>
      </trkpt>
      <trkpt lat="43.21471" lon="5.50725">
        <ele>192.4</ele>
        <time>2013-04-11T12:25:49Z</time>
      </trkpt>
      <trkpt lat="43.21484" lon="5.50733">
        <ele>190.48</ele>
        <time>2013-04-11T12:26:04Z</time>
      </trkpt>
      <trkpt lat="43.21502" lon="5.50747">
        <ele>189.52</ele>
        <time>2013-04-11T12:26:21Z</time>
      </trkpt>
      <trkpt lat="43.21523" lon="5.50757">
        <ele>190</ele>
        <time>2013-04-11T12:26:39Z</time>
      </trkpt>
      <trkpt lat="43.2154" lon="5.50765">
        <ele>189.52</ele>
        <time>2013-04-11T12:26:55Z</time>
      </trkpt>
      <trkpt lat="43.21562" lon="5.50774">
        <ele>187.59</ele>
        <time>2013-04-11T12:27:15Z</time>
      </trkpt>
      <trkpt lat="43.21579" lon="5.50778">
        <ele>187.59</ele>
        <time>2013-04-11T12:27:29Z</time>
      </trkpt>
      <trkpt lat="43.21599" lon="5.50787">
        <ele>186.63</ele>
        <time>2013-04-11T12:27:46Z</time>
      </trkpt>
      <trkpt lat="43.21617" lon="5.50802">
        <ele>185.67</ele>
        <time>2013-04-11T12:28:04Z</time>
      </trkpt>
      <trkpt lat="43.21636" lon="5.50815">
        <ele>186.63</ele>
        <time>2013-04-11T12:28:21Z</time>
      </trkpt>
      <trkpt lat="43.21654" lon="5.50829">
        <ele>185.67</ele>
        <time>2013-04-11T12:28:38Z</time>
      </trkpt>
      <trkpt lat="43.21669" lon="5.50848">
        <ele>187.11</ele>
        <time>2013-04-11T12:28:56Z</time>
      </trkpt>
      <trkpt lat="43.21683" lon="5.50865">
        <ele>186.63</ele>
        <time>2013-04-11T12:29:12Z</time>
      </trkpt>
      <trkpt lat="43.21697" lon="5.50881">
        <ele>186.63</ele>
        <time>2013-04-11T12:29:29Z</time>
      </trkpt>
      <trkpt lat="43.21713" lon="5.50901">
        <ele>186.15</ele>
        <time>2013-04-11T12:29:48Z</time>
      </trkpt>
      <trkpt lat="43.21726" lon="5.50915">
        <ele>187.11</ele>
        <time>2013-04-11T12:30:04Z</time>
      </trkpt>
      <trkpt lat="43.21727" lon="5.50916">
        <ele>187.11</ele>
        <time>2013-04-11T12:30:05Z</time>
      </trkpt>
      <trkpt lat="43.2174" lon="5.50934">
        <ele>187.59</ele>
        <time>2013-04-11T12:30:22Z</time>
      </trkpt>
      <trkpt lat="43.21749" lon="5.50954">
        <ele>187.59</ele>
        <time>2013-04-11T12:30:38Z</time>
      </trkpt>
      <trkpt lat="43.21758" lon="5.50966">
        <ele>189.52</ele>
        <time>2013-04-11T12:30:52Z</time>
      </trkpt>
      <trkpt lat="43.21773" lon="5.50982">
        <ele>190.96</ele>
        <time>2013-04-11T12:31:10Z</time>
      </trkpt>
      <trkpt lat="43.21789" lon="5.50989">
        <ele>191.44</ele>
        <time>2013-04-11T12:31:27Z</time>
      </trkpt>
      <trkpt lat="43.21805" lon="5.50997">
        <ele>193.36</ele>
        <time>2013-04-11T12:31:44Z</time>
      </trkpt>
      <trkpt lat="43.21818" lon="5.51003">
        <ele>195.28</ele>
        <time>2013-04-11T12:32:00Z</time>
      </trkpt>
      <trkpt lat="43.21832" lon="5.51009">
        <ele>196.73</ele>
        <time>2013-04-11T12:32:15Z</time>
      </trkpt>
      <trkpt lat="43.21836" lon="5.5101">
        <ele>196.73</ele>
        <time>2013-04-11T12:32:20Z</time>
      </trkpt>
      <trkpt lat="43.21839" lon="5.51012">
        <ele>197.21</ele>
        <time>2013-04-11T12:32:24Z</time>
      </trkpt>
      <trkpt lat="43.21853" lon="5.51019">
        <ele>198.17</ele>
        <time>2013-04-11T12:32:40Z</time>
      </trkpt>
      <trkpt lat="43.21868" lon="5.51025">
        <ele>199.13</ele>
        <time>2013-04-11T12:32:56Z</time>
      </trkpt>
      <trkpt lat="43.21869" lon="5.51025">
        <ele>199.13</ele>
        <time>2013-04-11T12:32:57Z</time>
      </trkpt>
      <trkpt lat="43.21884" lon="5.51032">
        <ele>199.61</ele>
        <time>2013-04-11T12:33:13Z</time>
      </trkpt>
      <trkpt lat="43.219" lon="5.51039">
        <ele>201.05</ele>
        <time>2013-04-11T12:33:29Z</time>
      </trkpt>
      <trkpt lat="43.2191" lon="5.51044">
        <ele>201.53</ele>
        <time>2013-04-11T12:33:40Z</time>
      </trkpt>
      <trkpt lat="43.21923" lon="5.5105">
        <ele>202.01</ele>
        <time>2013-04-11T12:33:51Z</time>
      </trkpt>
      <trkpt lat="43.21942" lon="5.51061">
        <ele>203.46</ele>
        <time>2013-04-11T12:34:10Z</time>
      </trkpt>
      <trkpt lat="43.21962" lon="5.51073">
        <ele>203.46</ele>
        <time>2013-04-11T12:34:29Z</time>
      </trkpt>
      <trkpt lat="43.2198" lon="5.51084">
        <ele>205.38</ele>
        <time>2013-04-11T12:34:46Z</time>
      </trkpt>
      <trkpt lat="43.22" lon="5.51098">
        <ele>205.86</ele>
        <time>2013-04-11T12:35:05Z</time>
      </trkpt>
      <trkpt lat="43.22016" lon="5.51112">
        <ele>205.86</ele>
        <time>2013-04-11T12:35:22Z</time>
      </trkpt>
      <trkpt lat="43.2203" lon="5.51127">
        <ele>206.82</ele>
        <time>2013-04-11T12:35:41Z</time>
      </trkpt>
      <trkpt lat="43.22032" lon="5.51126">
        <ele>206.82</ele>
        <time>2013-04-11T12:35:54Z</time>
      </trkpt>
      <trkpt lat="43.22033" lon="5.51126">
        <ele>204.42</ele>
        <time>2013-04-11T12:36:09Z</time>
      </trkpt>
      <trkpt lat="43.22033" lon="5.51126">
        <ele>203.94</ele>
        <time>2013-04-11T12:36:43Z</time>
      </trkpt>
      <trkpt lat="43.22032" lon="5.51127">
        <ele>204.9</ele>
        <time>2013-04-11T12:37:00Z</time>
      </trkpt>
      <trkpt lat="43.22034" lon="5.51126">
        <ele>203.94</ele>
        <time>2013-04-11T12:37:14Z</time>
      </trkpt>
      <trkpt lat="43.22034" lon="5.51127">
        <ele>205.86</ele>
        <time>2013-04-11T12:37:39Z</time>
      </trkpt>
      <trkpt lat="43.22034" lon="5.51126">
        <ele>205.86</ele>
        <time>2013-04-11T12:37:56Z</time>
      </trkpt>
      <trkpt lat="43.22035" lon="5.51126">
        <ele>203.94</ele>
        <time>2013-04-11T12:38:15Z</time>
      </trkpt>
      <trkpt lat="43.2204" lon="5.51131">
        <ele>204.9</ele>
        <time>2013-04-11T12:38:23Z</time>
      </trkpt>
      <trkpt lat="43.22051" lon="5.51128">
        <ele>204.9</ele>
        <time>2013-04-11T12:38:38Z</time>
      </trkpt>
      <trkpt lat="43.22064" lon="5.51119">
        <ele>204.9</ele>
        <time>2013-04-11T12:38:53Z</time>
      </trkpt>
      <trkpt lat="43.22071" lon="5.51108">
        <ele>203.94</ele>
        <time>2013-04-11T12:39:05Z</time>
      </trkpt>
      <trkpt lat="43.22082" lon="5.51092">
        <ele>202.49</ele>
        <time>2013-04-11T12:39:23Z</time>
      </trkpt>
      <trkpt lat="43.22098" lon="5.51076">
        <ele>201.53</ele>
        <time>2013-04-11T12:39:43Z</time>
      </trkpt>
      <trkpt lat="43.22111" lon="5.51066">
        <ele>201.05</ele>
        <time>2013-04-11T12:39:59Z</time>
      </trkpt>
      <trkpt lat="43.22124" lon="5.51055">
        <ele>200.57</ele>
        <time>2013-04-11T12:40:14Z</time>
      </trkpt>
      <trkpt lat="43.22133" lon="5.51046">
        <ele>200.57</ele>
        <time>2013-04-11T12:40:24Z</time>
      </trkpt>
      <trkpt lat="43.22148" lon="5.51034">
        <ele>199.13</ele>
        <time>2013-04-11T12:40:41Z</time>
      </trkpt>
      <trkpt lat="43.22164" lon="5.51021">
        <ele>199.13</ele>
        <time>2013-04-11T12:40:59Z</time>
      </trkpt>
      <trkpt lat="43.22177" lon="5.5101">
        <ele>200.09</ele>
        <time>2013-04-11T12:41:15Z</time>
      </trkpt>
      <trkpt lat="43.22189" lon="5.51002">
        <ele>202.49</ele>
        <time>2013-04-11T12:41:30Z</time>
      </trkpt>
      <trkpt lat="43.22196" lon="5.50997">
        <ele>203.46</ele>
        <time>2013-04-11T12:41:38Z</time>
      </trkpt>
      <trkpt lat="43.22209" lon="5.50986">
        <ele>205.38</ele>
        <time>2013-04-11T12:41:53Z</time>
      </trkpt>
      <trkpt lat="43.22222" lon="5.50974">
        <ele>206.82</ele>
        <time>2013-04-11T12:42:10Z</time>
      </trkpt>
      <trkpt lat="43.22233" lon="5.50965">
        <ele>208.26</ele>
        <time>2013-04-11T12:42:24Z</time>
      </trkpt>
      <trkpt lat="43.22246" lon="5.5095">
        <ele>209.7</ele>
        <time>2013-04-11T12:42:41Z</time>
      </trkpt>
      <trkpt lat="43.22258" lon="5.50942">
        <ele>210.67</ele>
        <time>2013-04-11T12:42:54Z</time>
      </trkpt>
      <trkpt lat="43.22261" lon="5.5094">
        <ele>211.15</ele>
        <time>2013-04-11T12:42:58Z</time>
      </trkpt>
      <trkpt lat="43.22272" lon="5.50936">
        <ele>212.11</ele>
        <time>2013-04-11T12:43:11Z</time>
      </trkpt>
      <trkpt lat="43.22284" lon="5.50929">
        <ele>213.07</ele>
        <time>2013-04-11T12:43:26Z</time>
      </trkpt>
      <trkpt lat="43.22296" lon="5.5092">
        <ele>215.47</ele>
        <time>2013-04-11T12:43:40Z</time>
      </trkpt>
      <trkpt lat="43.22309" lon="5.50912">
        <ele>217.4</ele>
        <time>2013-04-11T12:43:55Z</time>
      </trkpt>
      <trkpt lat="43.22321" lon="5.50904">
        <ele>218.36</ele>
        <time>2013-04-11T12:44:10Z</time>
      </trkpt>
      <trkpt lat="43.22333" lon="5.50897">
        <ele>219.8</ele>
        <time>2013-04-11T12:44:25Z</time>
      </trkpt>
      <trkpt lat="43.22347" lon="5.50889">
        <ele>221.72</ele>
        <time>2013-04-11T12:44:43Z</time>
      </trkpt>
      <trkpt lat="43.22356" lon="5.50882">
        <ele>223.64</ele>
        <time>2013-04-11T12:44:57Z</time>
      </trkpt>
      <trkpt lat="43.22364" lon="5.50875">
        <ele>225.57</ele>
        <time>2013-04-11T12:45:09Z</time>
      </trkpt>
      <trkpt lat="43.22373" lon="5.50862">
        <ele>227.01</ele>
        <time>2013-04-11T12:45:26Z</time>
      </trkpt>
      <trkpt lat="43.2238" lon="5.5085">
        <ele>228.45</ele>
        <time>2013-04-11T12:45:41Z</time>
      </trkpt>
      <trkpt lat="43.22387" lon="5.50838">
        <ele>230.37</ele>
        <time>2013-04-11T12:45:57Z</time>
      </trkpt>
      <trkpt lat="43.22396" lon="5.50826">
        <ele>232.78</ele>
        <time>2013-04-11T12:46:13Z</time>
      </trkpt>
      <trkpt lat="43.22402" lon="5.50822">
        <ele>233.74</ele>
        <time>2013-04-11T12:46:27Z</time>
      </trkpt>
      <trkpt lat="43.22404" lon="5.50819">
        <ele>232.78</ele>
        <time>2013-04-11T12:46:40Z</time>
      </trkpt>
      <trkpt lat="43.22403" lon="5.50819">
        <ele>232.78</ele>
        <time>2013-04-11T12:46:57Z</time>
      </trkpt>
      <trkpt lat="43.22404" lon="5.50819">
        <ele>232.3</ele>
        <time>2013-04-11T12:47:21Z</time>
      </trkpt>
      <trkpt lat="43.22404" lon="5.50819">
        <ele>232.78</ele>
        <time>2013-04-11T12:47:44Z</time>
      </trkpt>
      <trkpt lat="43.22405" lon="5.5081">
        <ele>232.78</ele>
        <time>2013-04-11T12:48:01Z</time>
      </trkpt>
      <trkpt lat="43.22411" lon="5.50788">
        <ele>233.74</ele>
        <time>2013-04-11T12:48:19Z</time>
      </trkpt>
      <trkpt lat="43.22413" lon="5.50783">
        <ele>234.22</ele>
        <time>2013-04-11T12:48:24Z</time>
      </trkpt>
      <trkpt lat="43.22425" lon="5.50767">
        <ele>237.1</ele>
        <time>2013-04-11T12:48:43Z</time>
      </trkpt>
      <trkpt lat="43.22433" lon="5.50762">
        <ele>238.06</ele>
        <time>2013-04-11T12:48:52Z</time>
      </trkpt>
      <trkpt lat="43.22448" lon="5.50754">
        <ele>239.51</ele>
        <time>2013-04-11T12:49:08Z</time>
      </trkpt>
      <trkpt lat="43.22457" lon="5.50733">
        <ele>239.02</ele>
        <time>2013-04-11T12:49:23Z</time>
      </trkpt>
      <trkpt lat="43.22458" lon="5.50704">
        <ele>238.54</ele>
        <time>2013-04-11T12:49:42Z</time>
      </trkpt>
      <trkpt lat="43.22455" lon="5.50686">
        <ele>238.06</ele>
        <time>2013-04-11T12:49:55Z</time>
      </trkpt>
      <trkpt lat="43.22447" lon="5.50657">
        <ele>238.54</ele>
        <time>2013-04-11T12:50:17Z</time>
      </trkpt>
      <trkpt lat="43.2244" lon="5.5063">
        <ele>239.02</ele>
        <time>2013-04-11T12:50:35Z</time>
      </trkpt>
      <trkpt lat="43.22432" lon="5.50602">
        <ele>239.51</ele>
        <time>2013-04-11T12:50:52Z</time>
      </trkpt>
      <trkpt lat="43.22432" lon="5.50573">
        <ele>239.99</ele>
        <time>2013-04-11T12:51:10Z</time>
      </trkpt>
      <trkpt lat="43.2244" lon="5.50548">
        <ele>243.35</ele>
        <time>2013-04-11T12:51:29Z</time>
      </trkpt>
      <trkpt lat="43.22456" lon="5.5053">
        <ele>244.79</ele>
        <time>2013-04-11T12:51:48Z</time>
      </trkpt>
      <trkpt lat="43.22471" lon="5.50517">
        <ele>247.68</ele>
        <time>2013-04-11T12:52:06Z</time>
      </trkpt>
      <trkpt lat="43.22485" lon="5.50507">
        <ele>249.6</ele>
        <time>2013-04-11T12:52:22Z</time>
      </trkpt>
      <trkpt lat="43.225" lon="5.50496">
        <ele>251.52</ele>
        <time>2013-04-11T12:52:37Z</time>
      </trkpt>
      <trkpt lat="43.22516" lon="5.50485">
        <ele>252</ele>
        <time>2013-04-11T12:52:54Z</time>
      </trkpt>
      <trkpt lat="43.22531" lon="5.50474">
        <ele>253.44</ele>
        <time>2013-04-11T12:53:11Z</time>
      </trkpt>
      <trkpt lat="43.22549" lon="5.50465">
        <ele>253.93</ele>
        <time>2013-04-11T12:53:29Z</time>
      </trkpt>
      <trkpt lat="43.22572" lon="5.5046">
        <ele>254.41</ele>
        <time>2013-04-11T12:53:49Z</time>
      </trkpt>
      <trkpt lat="43.22592" lon="5.50457">
        <ele>254.89</ele>
        <time>2013-04-11T12:54:08Z</time>
      </trkpt>
      <trkpt lat="43.22614" lon="5.50453">
        <ele>255.85</ele>
        <time>2013-04-11T12:54:28Z</time>
      </trkpt>
      <trkpt lat="43.22637" lon="5.50448">
        <ele>256.33</ele>
        <time>2013-04-11T12:54:49Z</time>
      </trkpt>
      <trkpt lat="43.22657" lon="5.50445">
        <ele>256.33</ele>
        <time>2013-04-11T12:55:09Z</time>
      </trkpt>
      <trkpt lat="43.22674" lon="5.50442">
        <ele>255.85</ele>
        <time>2013-04-11T12:55:26Z</time>
      </trkpt>
      <trkpt lat="43.22691" lon="5.50437">
        <ele>256.33</ele>
        <time>2013-04-11T12:55:44Z</time>
      </trkpt>
      <trkpt lat="43.227" lon="5.50431">
        <ele>255.85</ele>
        <time>2013-04-11T12:55:59Z</time>
      </trkpt>
      <trkpt lat="43.22705" lon="5.50424">
        <ele>257.29</ele>
        <time>2013-04-11T12:56:12Z</time>
      </trkpt>
      <trkpt lat="43.22705" lon="5.50425">
        <ele>258.25</ele>
        <time>2013-04-11T12:56:28Z</time>
      </trkpt>
      <trkpt lat="43.22707" lon="5.50425">
        <ele>258.73</ele>
        <time>2013-04-11T12:56:47Z</time>
      </trkpt>
      <trkpt lat="43.22705" lon="5.50425">
        <ele>257.77</ele>
        <time>2013-04-11T12:57:05Z</time>
      </trkpt>
      <trkpt lat="43.22705" lon="5.50426">
        <ele>257.77</ele>
        <time>2013-04-11T12:57:17Z</time>
      </trkpt>
    </trkseg>
  </trk>
</gpx>